<?xml version="1.0" encoding="UTF-8" standalone="no" ?>
<gpx xmlns="http://www.topografix.com/GPX/1/1" xmlns:xsi="http://www.w3.org/2001/XMLSchema-instance" xsi:schemaLocation="http://www.topografix.com/GPX/1/1 http://www.topografix.com/GPX/1/1/gpx.xsd" version="1.1" creator="VisuGPX - https://www.visugpx.com">
  <metadata>
    <name>ASLPM marche Marsilly le 14 sept 2015</name>
    <desc><![CDATA[ASLPM marche à Marsilly du 14 septembre 2015
9.6 km avec 31 participants
]]></desc>
  </metadata>
  <trk>
    <name><![CDATA[Marche Marsilly]]></name>
    <trkseg>
      <trkpt lat="46.23069" lon="-1.13788">
        <ele>21</ele>
        <time>2015-09-14T07:15:55.000Z</time>
      </trkpt>
      <trkpt lat="46.23071" lon="-1.13785">
        <ele>20.799999237061</ele>
        <time>2015-09-14T07:15:56.000Z</time>
      </trkpt>
      <trkpt lat="46.23081" lon="-1.13773">
        <ele>20.799999237061</ele>
        <time>2015-09-14T07:15:59.000Z</time>
      </trkpt>
      <trkpt lat="46.231" lon="-1.13756">
        <ele>20.60000038147</ele>
        <time>2015-09-14T07:16:04.000Z</time>
      </trkpt>
      <trkpt lat="46.23104" lon="-1.13746">
        <ele>20.39999961853</ele>
        <time>2015-09-14T07:16:06.000Z</time>
      </trkpt>
      <trkpt lat="46.23108" lon="-1.13735">
        <ele>20.39999961853</ele>
        <time>2015-09-14T07:16:08.000Z</time>
      </trkpt>
      <trkpt lat="46.23109" lon="-1.13724">
        <ele>20.39999961853</ele>
        <time>2015-09-14T07:16:10.000Z</time>
      </trkpt>
      <trkpt lat="46.23105" lon="-1.13704">
        <ele>20.200000762939</ele>
        <time>2015-09-14T07:16:14.000Z</time>
      </trkpt>
      <trkpt lat="46.23097" lon="-1.13691">
        <ele>20.200000762939</ele>
        <time>2015-09-14T07:16:19.000Z</time>
      </trkpt>
      <trkpt lat="46.23097" lon="-1.13689">
        <ele>20.200000762939</ele>
        <time>2015-09-14T07:16:20.000Z</time>
      </trkpt>
      <trkpt lat="46.2309" lon="-1.13677">
        <ele>20</ele>
        <time>2015-09-14T07:16:26.000Z</time>
      </trkpt>
      <trkpt lat="46.23073" lon="-1.13664">
        <ele>20.200000762939</ele>
        <time>2015-09-14T07:16:35.000Z</time>
      </trkpt>
      <trkpt lat="46.2306" lon="-1.13649">
        <ele>20</ele>
        <time>2015-09-14T07:16:44.000Z</time>
      </trkpt>
      <trkpt lat="46.2305" lon="-1.13637">
        <ele>20</ele>
        <time>2015-09-14T07:16:53.000Z</time>
      </trkpt>
      <trkpt lat="46.23046" lon="-1.13628">
        <ele>20</ele>
        <time>2015-09-14T07:17:01.000Z</time>
      </trkpt>
      <trkpt lat="46.2304" lon="-1.13616">
        <ele>20</ele>
        <time>2015-09-14T07:17:09.000Z</time>
      </trkpt>
      <trkpt lat="46.23034" lon="-1.13598">
        <ele>20</ele>
        <time>2015-09-14T07:17:19.000Z</time>
      </trkpt>
      <trkpt lat="46.23029" lon="-1.13576">
        <ele>20</ele>
        <time>2015-09-14T07:17:30.000Z</time>
      </trkpt>
      <trkpt lat="46.23023" lon="-1.1355">
        <ele>20.200000762939</ele>
        <time>2015-09-14T07:17:43.000Z</time>
      </trkpt>
      <trkpt lat="46.23017" lon="-1.13525">
        <ele>20.39999961853</ele>
        <time>2015-09-14T07:17:56.000Z</time>
      </trkpt>
      <trkpt lat="46.23014" lon="-1.13509">
        <ele>20.200000762939</ele>
        <time>2015-09-14T07:18:05.000Z</time>
      </trkpt>
      <trkpt lat="46.23011" lon="-1.13499">
        <ele>20</ele>
        <time>2015-09-14T07:18:14.000Z</time>
      </trkpt>
      <trkpt lat="46.23009" lon="-1.13488">
        <ele>19.799999237061</ele>
        <time>2015-09-14T07:18:23.000Z</time>
      </trkpt>
      <trkpt lat="46.23007" lon="-1.13477">
        <ele>19.60000038147</ele>
        <time>2015-09-14T07:18:30.000Z</time>
      </trkpt>
      <trkpt lat="46.23004" lon="-1.13461">
        <ele>19.60000038147</ele>
        <time>2015-09-14T07:18:40.000Z</time>
      </trkpt>
      <trkpt lat="46.23002" lon="-1.13445">
        <ele>19.60000038147</ele>
        <time>2015-09-14T07:18:50.000Z</time>
      </trkpt>
      <trkpt lat="46.23" lon="-1.13425">
        <ele>19.60000038147</ele>
        <time>2015-09-14T07:19:01.000Z</time>
      </trkpt>
      <trkpt lat="46.22998" lon="-1.13409">
        <ele>19.39999961853</ele>
        <time>2015-09-14T07:19:10.000Z</time>
      </trkpt>
      <trkpt lat="46.22997" lon="-1.13393">
        <ele>19.39999961853</ele>
        <time>2015-09-14T07:19:19.000Z</time>
      </trkpt>
      <trkpt lat="46.22994" lon="-1.13375">
        <ele>19.39999961853</ele>
        <time>2015-09-14T07:19:29.000Z</time>
      </trkpt>
      <trkpt lat="46.22994" lon="-1.13355">
        <ele>19.60000038147</ele>
        <time>2015-09-14T07:19:40.000Z</time>
      </trkpt>
      <trkpt lat="46.22994" lon="-1.13338">
        <ele>19.799999237061</ele>
        <time>2015-09-14T07:19:49.000Z</time>
      </trkpt>
      <trkpt lat="46.22992" lon="-1.13313">
        <ele>20.200000762939</ele>
        <time>2015-09-14T07:20:02.000Z</time>
      </trkpt>
      <trkpt lat="46.22992" lon="-1.13293">
        <ele>20.39999961853</ele>
        <time>2015-09-14T07:20:12.000Z</time>
      </trkpt>
      <trkpt lat="46.2299" lon="-1.13273">
        <ele>20.60000038147</ele>
        <time>2015-09-14T07:20:22.000Z</time>
      </trkpt>
      <trkpt lat="46.22991" lon="-1.13261">
        <ele>20.799999237061</ele>
        <time>2015-09-14T07:20:28.000Z</time>
      </trkpt>
      <trkpt lat="46.22988" lon="-1.13243">
        <ele>21</ele>
        <time>2015-09-14T07:20:37.000Z</time>
      </trkpt>
      <trkpt lat="46.22985" lon="-1.13223">
        <ele>21.200000762939</ele>
        <time>2015-09-14T07:20:48.000Z</time>
      </trkpt>
      <trkpt lat="46.22982" lon="-1.13211">
        <ele>21</ele>
        <time>2015-09-14T07:20:56.000Z</time>
      </trkpt>
      <trkpt lat="46.22978" lon="-1.13209">
        <ele>21</ele>
        <time>2015-09-14T07:21:02.000Z</time>
      </trkpt>
      <trkpt lat="46.22976" lon="-1.13199">
        <ele>20.799999237061</ele>
        <time>2015-09-14T07:21:08.000Z</time>
      </trkpt>
      <trkpt lat="46.22976" lon="-1.13185">
        <ele>20.799999237061</ele>
        <time>2015-09-14T07:21:16.000Z</time>
      </trkpt>
      <trkpt lat="46.22975" lon="-1.13172">
        <ele>20.799999237061</ele>
        <time>2015-09-14T07:21:25.000Z</time>
      </trkpt>
      <trkpt lat="46.22974" lon="-1.13151">
        <ele>20.799999237061</ele>
        <time>2015-09-14T07:21:36.000Z</time>
      </trkpt>
      <trkpt lat="46.22974" lon="-1.13131">
        <ele>21.200000762939</ele>
        <time>2015-09-14T07:21:46.000Z</time>
      </trkpt>
      <trkpt lat="46.22975" lon="-1.13113">
        <ele>21.60000038147</ele>
        <time>2015-09-14T07:21:55.000Z</time>
      </trkpt>
      <trkpt lat="46.2298" lon="-1.131">
        <ele>22</ele>
        <time>2015-09-14T07:22:03.000Z</time>
      </trkpt>
      <trkpt lat="46.22986" lon="-1.13097">
        <ele>22.200000762939</ele>
        <time>2015-09-14T07:22:10.000Z</time>
      </trkpt>
      <trkpt lat="46.22994" lon="-1.13098">
        <ele>22.200000762939</ele>
        <time>2015-09-14T07:22:17.000Z</time>
      </trkpt>
      <trkpt lat="46.22996" lon="-1.13097">
        <ele>22.39999961853</ele>
        <time>2015-09-14T07:22:19.000Z</time>
      </trkpt>
      <trkpt lat="46.22999" lon="-1.1308">
        <ele>22.799999237061</ele>
        <time>2015-09-14T07:22:29.000Z</time>
      </trkpt>
      <trkpt lat="46.22998" lon="-1.13066">
        <ele>23</ele>
        <time>2015-09-14T07:22:36.000Z</time>
      </trkpt>
      <trkpt lat="46.22997" lon="-1.13044">
        <ele>23.200000762939</ele>
        <time>2015-09-14T07:22:47.000Z</time>
      </trkpt>
      <trkpt lat="46.23002" lon="-1.1303">
        <ele>23.39999961853</ele>
        <time>2015-09-14T07:22:55.000Z</time>
      </trkpt>
      <trkpt lat="46.23015" lon="-1.13022">
        <ele>23.39999961853</ele>
        <time>2015-09-14T07:23:05.000Z</time>
      </trkpt>
      <trkpt lat="46.23028" lon="-1.13014">
        <ele>23.60000038147</ele>
        <time>2015-09-14T07:23:16.000Z</time>
      </trkpt>
      <trkpt lat="46.23032" lon="-1.13002">
        <ele>23.799999237061</ele>
        <time>2015-09-14T07:23:23.000Z</time>
      </trkpt>
      <trkpt lat="46.23031" lon="-1.12984">
        <ele>24.200000762939</ele>
        <time>2015-09-14T07:23:32.000Z</time>
      </trkpt>
      <trkpt lat="46.23029" lon="-1.12973">
        <ele>24.39999961853</ele>
        <time>2015-09-14T07:23:38.000Z</time>
      </trkpt>
      <trkpt lat="46.23031" lon="-1.12957">
        <ele>24.60000038147</ele>
        <time>2015-09-14T07:23:44.000Z</time>
      </trkpt>
      <trkpt lat="46.23038" lon="-1.12944">
        <ele>24.60000038147</ele>
        <time>2015-09-14T07:23:52.000Z</time>
      </trkpt>
      <trkpt lat="46.23049" lon="-1.12935">
        <ele>24.60000038147</ele>
        <time>2015-09-14T07:24:01.000Z</time>
      </trkpt>
      <trkpt lat="46.2306" lon="-1.12929">
        <ele>24.60000038147</ele>
        <time>2015-09-14T07:24:10.000Z</time>
      </trkpt>
      <trkpt lat="46.2307" lon="-1.12924">
        <ele>24.39999961853</ele>
        <time>2015-09-14T07:24:18.000Z</time>
      </trkpt>
      <trkpt lat="46.23084" lon="-1.12918">
        <ele>24.200000762939</ele>
        <time>2015-09-14T07:24:30.000Z</time>
      </trkpt>
      <trkpt lat="46.23096" lon="-1.12912">
        <ele>24</ele>
        <time>2015-09-14T07:24:40.000Z</time>
      </trkpt>
      <trkpt lat="46.23111" lon="-1.12903">
        <ele>23.799999237061</ele>
        <time>2015-09-14T07:24:52.000Z</time>
      </trkpt>
      <trkpt lat="46.23117" lon="-1.12889">
        <ele>23.60000038147</ele>
        <time>2015-09-14T07:25:01.000Z</time>
      </trkpt>
      <trkpt lat="46.23118" lon="-1.12877">
        <ele>23.60000038147</ele>
        <time>2015-09-14T07:25:07.000Z</time>
      </trkpt>
      <trkpt lat="46.23117" lon="-1.12871">
        <ele>23.60000038147</ele>
        <time>2015-09-14T07:25:10.000Z</time>
      </trkpt>
      <trkpt lat="46.23117" lon="-1.12858">
        <ele>23.60000038147</ele>
        <time>2015-09-14T07:25:16.000Z</time>
      </trkpt>
      <trkpt lat="46.23116" lon="-1.12842">
        <ele>23.799999237061</ele>
        <time>2015-09-14T07:25:24.000Z</time>
      </trkpt>
      <trkpt lat="46.23116" lon="-1.12828">
        <ele>23.799999237061</ele>
        <time>2015-09-14T07:25:31.000Z</time>
      </trkpt>
      <trkpt lat="46.23116" lon="-1.12826">
        <ele>23.799999237061</ele>
        <time>2015-09-14T07:25:32.000Z</time>
      </trkpt>
      <trkpt lat="46.23116" lon="-1.12811">
        <ele>23.60000038147</ele>
        <time>2015-09-14T07:25:40.000Z</time>
      </trkpt>
      <trkpt lat="46.23116" lon="-1.12797">
        <ele>23.799999237061</ele>
        <time>2015-09-14T07:25:48.000Z</time>
      </trkpt>
      <trkpt lat="46.23119" lon="-1.12781">
        <ele>24</ele>
        <time>2015-09-14T07:25:56.000Z</time>
      </trkpt>
      <trkpt lat="46.23123" lon="-1.12767">
        <ele>24</ele>
        <time>2015-09-14T07:26:04.000Z</time>
      </trkpt>
      <trkpt lat="46.23128" lon="-1.12753">
        <ele>24.200000762939</ele>
        <time>2015-09-14T07:26:12.000Z</time>
      </trkpt>
      <trkpt lat="46.23134" lon="-1.12736">
        <ele>24.200000762939</ele>
        <time>2015-09-14T07:26:22.000Z</time>
      </trkpt>
      <trkpt lat="46.23142" lon="-1.12716">
        <ele>23.799999237061</ele>
        <time>2015-09-14T07:26:34.000Z</time>
      </trkpt>
      <trkpt lat="46.2315" lon="-1.12694">
        <ele>23.60000038147</ele>
        <time>2015-09-14T07:26:46.000Z</time>
      </trkpt>
      <trkpt lat="46.23157" lon="-1.12676">
        <ele>23.39999961853</ele>
        <time>2015-09-14T07:26:57.000Z</time>
      </trkpt>
      <trkpt lat="46.23162" lon="-1.12657">
        <ele>23.200000762939</ele>
        <time>2015-09-14T07:27:08.000Z</time>
      </trkpt>
      <trkpt lat="46.2317" lon="-1.12639">
        <ele>23</ele>
        <time>2015-09-14T07:27:19.000Z</time>
      </trkpt>
      <trkpt lat="46.23176" lon="-1.12625">
        <ele>22.799999237061</ele>
        <time>2015-09-14T07:27:28.000Z</time>
      </trkpt>
      <trkpt lat="46.23185" lon="-1.12616">
        <ele>22.60000038147</ele>
        <time>2015-09-14T07:27:37.000Z</time>
      </trkpt>
      <trkpt lat="46.23187" lon="-1.12616">
        <ele>22.60000038147</ele>
        <time>2015-09-14T07:27:39.000Z</time>
      </trkpt>
      <trkpt lat="46.23194" lon="-1.12627">
        <ele>22.799999237061</ele>
        <time>2015-09-14T07:27:48.000Z</time>
      </trkpt>
      <trkpt lat="46.23197" lon="-1.12643">
        <ele>23</ele>
        <time>2015-09-14T07:27:57.000Z</time>
      </trkpt>
      <trkpt lat="46.23199" lon="-1.12662">
        <ele>23.200000762939</ele>
        <time>2015-09-14T07:28:08.000Z</time>
      </trkpt>
      <trkpt lat="46.23202" lon="-1.12683">
        <ele>23.39999961853</ele>
        <time>2015-09-14T07:28:19.000Z</time>
      </trkpt>
      <trkpt lat="46.23203" lon="-1.12704">
        <ele>23.39999961853</ele>
        <time>2015-09-14T07:28:30.000Z</time>
      </trkpt>
      <trkpt lat="46.23204" lon="-1.1272">
        <ele>23.200000762939</ele>
        <time>2015-09-14T07:28:39.000Z</time>
      </trkpt>
      <trkpt lat="46.23206" lon="-1.12741">
        <ele>23.200000762939</ele>
        <time>2015-09-14T07:28:50.000Z</time>
      </trkpt>
      <trkpt lat="46.23208" lon="-1.12755">
        <ele>23</ele>
        <time>2015-09-14T07:28:59.000Z</time>
      </trkpt>
      <trkpt lat="46.23209" lon="-1.12767">
        <ele>23</ele>
        <time>2015-09-14T07:29:06.000Z</time>
      </trkpt>
      <trkpt lat="46.23213" lon="-1.12782">
        <ele>23</ele>
        <time>2015-09-14T07:29:14.000Z</time>
      </trkpt>
      <trkpt lat="46.23215" lon="-1.12795">
        <ele>23</ele>
        <time>2015-09-14T07:29:23.000Z</time>
      </trkpt>
      <trkpt lat="46.23216" lon="-1.12801">
        <ele>23</ele>
        <time>2015-09-14T07:29:29.000Z</time>
      </trkpt>
      <trkpt lat="46.23219" lon="-1.12813">
        <ele>23</ele>
        <time>2015-09-14T07:29:36.000Z</time>
      </trkpt>
      <trkpt lat="46.23223" lon="-1.12829">
        <ele>22.799999237061</ele>
        <time>2015-09-14T07:29:45.000Z</time>
      </trkpt>
      <trkpt lat="46.23225" lon="-1.12846">
        <ele>22.60000038147</ele>
        <time>2015-09-14T07:29:54.000Z</time>
      </trkpt>
      <trkpt lat="46.23229" lon="-1.12863">
        <ele>22.39999961853</ele>
        <time>2015-09-14T07:30:04.000Z</time>
      </trkpt>
      <trkpt lat="46.23232" lon="-1.12881">
        <ele>22.200000762939</ele>
        <time>2015-09-14T07:30:14.000Z</time>
      </trkpt>
      <trkpt lat="46.23234" lon="-1.12902">
        <ele>22</ele>
        <time>2015-09-14T07:30:25.000Z</time>
      </trkpt>
      <trkpt lat="46.23237" lon="-1.12923">
        <ele>21.60000038147</ele>
        <time>2015-09-14T07:30:36.000Z</time>
      </trkpt>
      <trkpt lat="46.23239" lon="-1.12943">
        <ele>21.39999961853</ele>
        <time>2015-09-14T07:30:46.000Z</time>
      </trkpt>
      <trkpt lat="46.23241" lon="-1.12962">
        <ele>21.200000762939</ele>
        <time>2015-09-14T07:30:56.000Z</time>
      </trkpt>
      <trkpt lat="46.23244" lon="-1.12977">
        <ele>21.39999961853</ele>
        <time>2015-09-14T07:31:05.000Z</time>
      </trkpt>
      <trkpt lat="46.23252" lon="-1.12983">
        <ele>21.60000038147</ele>
        <time>2015-09-14T07:31:12.000Z</time>
      </trkpt>
      <trkpt lat="46.23265" lon="-1.12983">
        <ele>22</ele>
        <time>2015-09-14T07:31:22.000Z</time>
      </trkpt>
      <trkpt lat="46.2328" lon="-1.12981">
        <ele>22.200000762939</ele>
        <time>2015-09-14T07:31:33.000Z</time>
      </trkpt>
      <trkpt lat="46.23296" lon="-1.12978">
        <ele>22.60000038147</ele>
        <time>2015-09-14T07:31:45.000Z</time>
      </trkpt>
      <trkpt lat="46.23305" lon="-1.12977">
        <ele>22.799999237061</ele>
        <time>2015-09-14T07:31:54.000Z</time>
      </trkpt>
      <trkpt lat="46.23307" lon="-1.12977">
        <ele>22.799999237061</ele>
        <time>2015-09-14T07:31:57.000Z</time>
      </trkpt>
      <trkpt lat="46.2331" lon="-1.12979">
        <ele>23</ele>
        <time>2015-09-14T07:32:01.000Z</time>
      </trkpt>
      <trkpt lat="46.23317" lon="-1.12991">
        <ele>22.799999237061</ele>
        <time>2015-09-14T07:32:10.000Z</time>
      </trkpt>
      <trkpt lat="46.23321" lon="-1.13006">
        <ele>22.60000038147</ele>
        <time>2015-09-14T07:32:19.000Z</time>
      </trkpt>
      <trkpt lat="46.23324" lon="-1.13023">
        <ele>22.39999961853</ele>
        <time>2015-09-14T07:32:29.000Z</time>
      </trkpt>
      <trkpt lat="46.23329" lon="-1.13037">
        <ele>22</ele>
        <time>2015-09-14T07:32:38.000Z</time>
      </trkpt>
      <trkpt lat="46.23338" lon="-1.13043">
        <ele>22</ele>
        <time>2015-09-14T07:32:47.000Z</time>
      </trkpt>
      <trkpt lat="46.23346" lon="-1.13038">
        <ele>22</ele>
        <time>2015-09-14T07:32:55.000Z</time>
      </trkpt>
      <trkpt lat="46.23351" lon="-1.13031">
        <ele>22</ele>
        <time>2015-09-14T07:33:02.000Z</time>
      </trkpt>
      <trkpt lat="46.23356" lon="-1.13025">
        <ele>22</ele>
        <time>2015-09-14T07:33:07.000Z</time>
      </trkpt>
      <trkpt lat="46.23361" lon="-1.13027">
        <ele>22</ele>
        <time>2015-09-14T07:33:12.000Z</time>
      </trkpt>
      <trkpt lat="46.23366" lon="-1.13037">
        <ele>22</ele>
        <time>2015-09-14T07:33:20.000Z</time>
      </trkpt>
      <trkpt lat="46.23369" lon="-1.13036">
        <ele>22</ele>
        <time>2015-09-14T07:33:25.000Z</time>
      </trkpt>
      <trkpt lat="46.23373" lon="-1.13042">
        <ele>22</ele>
        <time>2015-09-14T07:33:30.000Z</time>
      </trkpt>
      <trkpt lat="46.23378" lon="-1.13057">
        <ele>22</ele>
        <time>2015-09-14T07:33:40.000Z</time>
      </trkpt>
      <trkpt lat="46.23383" lon="-1.13074">
        <ele>21.799999237061</ele>
        <time>2015-09-14T07:33:49.000Z</time>
      </trkpt>
      <trkpt lat="46.23386" lon="-1.1309">
        <ele>21.60000038147</ele>
        <time>2015-09-14T07:33:58.000Z</time>
      </trkpt>
      <trkpt lat="46.23388" lon="-1.13106">
        <ele>21.39999961853</ele>
        <time>2015-09-14T07:34:07.000Z</time>
      </trkpt>
      <trkpt lat="46.23391" lon="-1.13119">
        <ele>21.39999961853</ele>
        <time>2015-09-14T07:34:15.000Z</time>
      </trkpt>
      <trkpt lat="46.23394" lon="-1.13132">
        <ele>21.200000762939</ele>
        <time>2015-09-14T07:34:23.000Z</time>
      </trkpt>
      <trkpt lat="46.23401" lon="-1.1315">
        <ele>21</ele>
        <time>2015-09-14T07:34:35.000Z</time>
      </trkpt>
      <trkpt lat="46.23405" lon="-1.13166">
        <ele>21</ele>
        <time>2015-09-14T07:34:44.000Z</time>
      </trkpt>
      <trkpt lat="46.23407" lon="-1.1318">
        <ele>20.799999237061</ele>
        <time>2015-09-14T07:34:52.000Z</time>
      </trkpt>
      <trkpt lat="46.23403" lon="-1.13191">
        <ele>20.60000038147</ele>
        <time>2015-09-14T07:34:59.000Z</time>
      </trkpt>
      <trkpt lat="46.23395" lon="-1.13199">
        <ele>20.39999961853</ele>
        <time>2015-09-14T07:35:07.000Z</time>
      </trkpt>
      <trkpt lat="46.23386" lon="-1.13202">
        <ele>20.39999961853</ele>
        <time>2015-09-14T07:35:15.000Z</time>
      </trkpt>
      <trkpt lat="46.23377" lon="-1.13202">
        <ele>20.60000038147</ele>
        <time>2015-09-14T07:35:24.000Z</time>
      </trkpt>
      <trkpt lat="46.23376" lon="-1.13202">
        <ele>20.60000038147</ele>
        <time>2015-09-14T07:35:25.000Z</time>
      </trkpt>
      <trkpt lat="46.23364" lon="-1.13206">
        <ele>20.60000038147</ele>
        <time>2015-09-14T07:35:34.000Z</time>
      </trkpt>
      <trkpt lat="46.23354" lon="-1.13213">
        <ele>20.60000038147</ele>
        <time>2015-09-14T07:35:42.000Z</time>
      </trkpt>
      <trkpt lat="46.2335" lon="-1.13227">
        <ele>20.60000038147</ele>
        <time>2015-09-14T07:35:50.000Z</time>
      </trkpt>
      <trkpt lat="46.23351" lon="-1.13241">
        <ele>20.60000038147</ele>
        <time>2015-09-14T07:35:57.000Z</time>
      </trkpt>
      <trkpt lat="46.23354" lon="-1.13258">
        <ele>20.60000038147</ele>
        <time>2015-09-14T07:36:06.000Z</time>
      </trkpt>
      <trkpt lat="46.23358" lon="-1.13279">
        <ele>20.39999961853</ele>
        <time>2015-09-14T07:36:17.000Z</time>
      </trkpt>
      <trkpt lat="46.23362" lon="-1.13299">
        <ele>20.39999961853</ele>
        <time>2015-09-14T07:36:28.000Z</time>
      </trkpt>
      <trkpt lat="46.23365" lon="-1.13319">
        <ele>20.200000762939</ele>
        <time>2015-09-14T07:36:38.000Z</time>
      </trkpt>
      <trkpt lat="46.23368" lon="-1.13339">
        <ele>20</ele>
        <time>2015-09-14T07:36:48.000Z</time>
      </trkpt>
      <trkpt lat="46.2337" lon="-1.13357">
        <ele>19.799999237061</ele>
        <time>2015-09-14T07:36:57.000Z</time>
      </trkpt>
      <trkpt lat="46.23372" lon="-1.13377">
        <ele>19.39999961853</ele>
        <time>2015-09-14T07:37:07.000Z</time>
      </trkpt>
      <trkpt lat="46.23374" lon="-1.13392">
        <ele>19.200000762939</ele>
        <time>2015-09-14T07:37:15.000Z</time>
      </trkpt>
      <trkpt lat="46.23376" lon="-1.13412">
        <ele>19</ele>
        <time>2015-09-14T07:37:25.000Z</time>
      </trkpt>
      <trkpt lat="46.23381" lon="-1.13438">
        <ele>18.60000038147</ele>
        <time>2015-09-14T07:37:38.000Z</time>
      </trkpt>
      <trkpt lat="46.23383" lon="-1.13459">
        <ele>18.39999961853</ele>
        <time>2015-09-14T07:37:48.000Z</time>
      </trkpt>
      <trkpt lat="46.23387" lon="-1.1348">
        <ele>18.200000762939</ele>
        <time>2015-09-14T07:37:58.000Z</time>
      </trkpt>
      <trkpt lat="46.2339" lon="-1.13507">
        <ele>17.799999237061</ele>
        <time>2015-09-14T07:38:10.000Z</time>
      </trkpt>
      <trkpt lat="46.23393" lon="-1.13534">
        <ele>17.39999961853</ele>
        <time>2015-09-14T07:38:22.000Z</time>
      </trkpt>
      <trkpt lat="46.23395" lon="-1.13562">
        <ele>17</ele>
        <time>2015-09-14T07:38:34.000Z</time>
      </trkpt>
      <trkpt lat="46.23398" lon="-1.13583">
        <ele>17.200000762939</ele>
        <time>2015-09-14T07:38:44.000Z</time>
      </trkpt>
      <trkpt lat="46.23391" lon="-1.13594">
        <ele>17.39999961853</ele>
        <time>2015-09-14T07:38:51.000Z</time>
      </trkpt>
      <trkpt lat="46.23381" lon="-1.13602">
        <ele>17.60000038147</ele>
        <time>2015-09-14T07:38:59.000Z</time>
      </trkpt>
      <trkpt lat="46.23368" lon="-1.13612">
        <ele>17.60000038147</ele>
        <time>2015-09-14T07:39:09.000Z</time>
      </trkpt>
      <trkpt lat="46.23354" lon="-1.13621">
        <ele>17.799999237061</ele>
        <time>2015-09-14T07:39:19.000Z</time>
      </trkpt>
      <trkpt lat="46.23339" lon="-1.1363">
        <ele>17.799999237061</ele>
        <time>2015-09-14T07:39:29.000Z</time>
      </trkpt>
      <trkpt lat="46.23322" lon="-1.1364">
        <ele>18</ele>
        <time>2015-09-14T07:39:41.000Z</time>
      </trkpt>
      <trkpt lat="46.23306" lon="-1.13649">
        <ele>18</ele>
        <time>2015-09-14T07:39:52.000Z</time>
      </trkpt>
      <trkpt lat="46.23287" lon="-1.13658">
        <ele>18.200000762939</ele>
        <time>2015-09-14T07:40:04.000Z</time>
      </trkpt>
      <trkpt lat="46.23274" lon="-1.13666">
        <ele>18.39999961853</ele>
        <time>2015-09-14T07:40:13.000Z</time>
      </trkpt>
      <trkpt lat="46.23257" lon="-1.13676">
        <ele>18.60000038147</ele>
        <time>2015-09-14T07:40:25.000Z</time>
      </trkpt>
      <trkpt lat="46.23229" lon="-1.13698">
        <ele>19</ele>
        <time>2015-09-14T07:40:46.000Z</time>
      </trkpt>
      <trkpt lat="46.23221" lon="-1.13705">
        <ele>19</ele>
        <time>2015-09-14T07:40:53.000Z</time>
      </trkpt>
      <trkpt lat="46.23206" lon="-1.13713">
        <ele>19.200000762939</ele>
        <time>2015-09-14T07:41:04.000Z</time>
      </trkpt>
      <trkpt lat="46.23192" lon="-1.13721">
        <ele>19.39999961853</ele>
        <time>2015-09-14T07:41:14.000Z</time>
      </trkpt>
      <trkpt lat="46.23181" lon="-1.13727">
        <ele>19.60000038147</ele>
        <time>2015-09-14T07:41:23.000Z</time>
      </trkpt>
      <trkpt lat="46.23169" lon="-1.13732">
        <ele>19.60000038147</ele>
        <time>2015-09-14T07:41:32.000Z</time>
      </trkpt>
      <trkpt lat="46.23154" lon="-1.13739">
        <ele>19.799999237061</ele>
        <time>2015-09-14T07:41:44.000Z</time>
      </trkpt>
      <trkpt lat="46.23142" lon="-1.13745">
        <ele>19.799999237061</ele>
        <time>2015-09-14T07:41:54.000Z</time>
      </trkpt>
      <trkpt lat="46.23128" lon="-1.13751">
        <ele>20.200000762939</ele>
        <time>2015-09-14T07:42:05.000Z</time>
      </trkpt>
      <trkpt lat="46.23118" lon="-1.13755">
        <ele>20.39999961853</ele>
        <time>2015-09-14T07:42:14.000Z</time>
      </trkpt>
      <trkpt lat="46.23114" lon="-1.13757">
        <ele>20.39999961853</ele>
        <time>2015-09-14T07:42:17.000Z</time>
      </trkpt>
      <trkpt lat="46.2311" lon="-1.1377">
        <ele>20.39999961853</ele>
        <time>2015-09-14T07:42:25.000Z</time>
      </trkpt>
      <trkpt lat="46.2311" lon="-1.13772">
        <ele>20.39999961853</ele>
        <time>2015-09-14T07:42:26.000Z</time>
      </trkpt>
      <trkpt lat="46.23104" lon="-1.1379">
        <ele>20.200000762939</ele>
        <time>2015-09-14T07:42:36.000Z</time>
      </trkpt>
      <trkpt lat="46.23102" lon="-1.13801">
        <ele>20.200000762939</ele>
        <time>2015-09-14T07:42:42.000Z</time>
      </trkpt>
      <trkpt lat="46.23105" lon="-1.13818">
        <ele>19.799999237061</ele>
        <time>2015-09-14T07:42:51.000Z</time>
      </trkpt>
      <trkpt lat="46.23106" lon="-1.13831">
        <ele>19.60000038147</ele>
        <time>2015-09-14T07:42:58.000Z</time>
      </trkpt>
      <trkpt lat="46.23109" lon="-1.13844">
        <ele>19.39999961853</ele>
        <time>2015-09-14T07:43:05.000Z</time>
      </trkpt>
      <trkpt lat="46.23111" lon="-1.13848">
        <ele>19.39999961853</ele>
        <time>2015-09-14T07:43:07.000Z</time>
      </trkpt>
      <trkpt lat="46.23113" lon="-1.13862">
        <ele>19.39999961853</ele>
        <time>2015-09-14T07:43:16.000Z</time>
      </trkpt>
      <trkpt lat="46.23113" lon="-1.1387">
        <ele>19.39999961853</ele>
        <time>2015-09-14T07:43:22.000Z</time>
      </trkpt>
      <trkpt lat="46.23115" lon="-1.13882">
        <ele>19.39999961853</ele>
        <time>2015-09-14T07:43:29.000Z</time>
      </trkpt>
      <trkpt lat="46.23117" lon="-1.13895">
        <ele>19.39999961853</ele>
        <time>2015-09-14T07:43:36.000Z</time>
      </trkpt>
      <trkpt lat="46.23121" lon="-1.1391">
        <ele>19.200000762939</ele>
        <time>2015-09-14T07:43:44.000Z</time>
      </trkpt>
      <trkpt lat="46.23123" lon="-1.13921">
        <ele>19.200000762939</ele>
        <time>2015-09-14T07:43:50.000Z</time>
      </trkpt>
      <trkpt lat="46.23123" lon="-1.13929">
        <ele>19.200000762939</ele>
        <time>2015-09-14T07:43:54.000Z</time>
      </trkpt>
      <trkpt lat="46.23126" lon="-1.13949">
        <ele>18.799999237061</ele>
        <time>2015-09-14T07:44:05.000Z</time>
      </trkpt>
      <trkpt lat="46.23127" lon="-1.13961">
        <ele>18.60000038147</ele>
        <time>2015-09-14T07:44:11.000Z</time>
      </trkpt>
      <trkpt lat="46.23132" lon="-1.13976">
        <ele>18.39999961853</ele>
        <time>2015-09-14T07:44:19.000Z</time>
      </trkpt>
      <trkpt lat="46.23134" lon="-1.13989">
        <ele>18.200000762939</ele>
        <time>2015-09-14T07:44:26.000Z</time>
      </trkpt>
      <trkpt lat="46.23137" lon="-1.14006">
        <ele>18</ele>
        <time>2015-09-14T07:44:35.000Z</time>
      </trkpt>
      <trkpt lat="46.2314" lon="-1.14027">
        <ele>18</ele>
        <time>2015-09-14T07:44:46.000Z</time>
      </trkpt>
      <trkpt lat="46.23142" lon="-1.14042">
        <ele>18</ele>
        <time>2015-09-14T07:44:54.000Z</time>
      </trkpt>
      <trkpt lat="46.23145" lon="-1.14068">
        <ele>18</ele>
        <time>2015-09-14T07:45:07.000Z</time>
      </trkpt>
      <trkpt lat="46.23148" lon="-1.14084">
        <ele>18</ele>
        <time>2015-09-14T07:45:16.000Z</time>
      </trkpt>
      <trkpt lat="46.23151" lon="-1.14105">
        <ele>18</ele>
        <time>2015-09-14T07:45:27.000Z</time>
      </trkpt>
      <trkpt lat="46.23154" lon="-1.14122">
        <ele>18</ele>
        <time>2015-09-14T07:45:36.000Z</time>
      </trkpt>
      <trkpt lat="46.23158" lon="-1.14143">
        <ele>17.799999237061</ele>
        <time>2015-09-14T07:45:47.000Z</time>
      </trkpt>
      <trkpt lat="46.23161" lon="-1.14156">
        <ele>17.799999237061</ele>
        <time>2015-09-14T07:45:55.000Z</time>
      </trkpt>
      <trkpt lat="46.23163" lon="-1.14169">
        <ele>17.799999237061</ele>
        <time>2015-09-14T07:46:02.000Z</time>
      </trkpt>
      <trkpt lat="46.23164" lon="-1.14182">
        <ele>17.799999237061</ele>
        <time>2015-09-14T07:46:09.000Z</time>
      </trkpt>
      <trkpt lat="46.23167" lon="-1.14193">
        <ele>17.799999237061</ele>
        <time>2015-09-14T07:46:15.000Z</time>
      </trkpt>
      <trkpt lat="46.23171" lon="-1.1421">
        <ele>17.60000038147</ele>
        <time>2015-09-14T07:46:23.000Z</time>
      </trkpt>
      <trkpt lat="46.23174" lon="-1.14231">
        <ele>17.200000762939</ele>
        <time>2015-09-14T07:46:33.000Z</time>
      </trkpt>
      <trkpt lat="46.23177" lon="-1.14251">
        <ele>17</ele>
        <time>2015-09-14T07:46:43.000Z</time>
      </trkpt>
      <trkpt lat="46.23179" lon="-1.14265">
        <ele>16.799999237061</ele>
        <time>2015-09-14T07:46:50.000Z</time>
      </trkpt>
      <trkpt lat="46.23183" lon="-1.14287">
        <ele>16.60000038147</ele>
        <time>2015-09-14T07:47:02.000Z</time>
      </trkpt>
      <trkpt lat="46.23185" lon="-1.143">
        <ele>16.60000038147</ele>
        <time>2015-09-14T07:47:09.000Z</time>
      </trkpt>
      <trkpt lat="46.23189" lon="-1.14317">
        <ele>16.39999961853</ele>
        <time>2015-09-14T07:47:18.000Z</time>
      </trkpt>
      <trkpt lat="46.23191" lon="-1.14324">
        <ele>16.200000762939</ele>
        <time>2015-09-14T07:47:22.000Z</time>
      </trkpt>
      <trkpt lat="46.23196" lon="-1.14339">
        <ele>16</ele>
        <time>2015-09-14T07:47:31.000Z</time>
      </trkpt>
      <trkpt lat="46.23198" lon="-1.14359">
        <ele>15.800000190735</ele>
        <time>2015-09-14T07:47:41.000Z</time>
      </trkpt>
      <trkpt lat="46.232" lon="-1.14378">
        <ele>15.60000038147</ele>
        <time>2015-09-14T07:47:51.000Z</time>
      </trkpt>
      <trkpt lat="46.23202" lon="-1.14396">
        <ele>15.39999961853</ele>
        <time>2015-09-14T07:48:00.000Z</time>
      </trkpt>
      <trkpt lat="46.23206" lon="-1.14417">
        <ele>15.199999809265</ele>
        <time>2015-09-14T07:48:11.000Z</time>
      </trkpt>
      <trkpt lat="46.23209" lon="-1.14436">
        <ele>15.60000038147</ele>
        <time>2015-09-14T07:48:21.000Z</time>
      </trkpt>
      <trkpt lat="46.23211" lon="-1.14456">
        <ele>15.800000190735</ele>
        <time>2015-09-14T07:48:31.000Z</time>
      </trkpt>
      <trkpt lat="46.23214" lon="-1.14477">
        <ele>16</ele>
        <time>2015-09-14T07:48:42.000Z</time>
      </trkpt>
      <trkpt lat="46.23217" lon="-1.14493">
        <ele>16.200000762939</ele>
        <time>2015-09-14T07:48:51.000Z</time>
      </trkpt>
      <trkpt lat="46.2322" lon="-1.1451">
        <ele>16.39999961853</ele>
        <time>2015-09-14T07:49:01.000Z</time>
      </trkpt>
      <trkpt lat="46.23222" lon="-1.14526">
        <ele>16.60000038147</ele>
        <time>2015-09-14T07:49:09.000Z</time>
      </trkpt>
      <trkpt lat="46.23226" lon="-1.14548">
        <ele>16.799999237061</ele>
        <time>2015-09-14T07:49:21.000Z</time>
      </trkpt>
      <trkpt lat="46.23228" lon="-1.14564">
        <ele>17</ele>
        <time>2015-09-14T07:49:30.000Z</time>
      </trkpt>
      <trkpt lat="46.2323" lon="-1.14579">
        <ele>16.799999237061</ele>
        <time>2015-09-14T07:49:39.000Z</time>
      </trkpt>
      <trkpt lat="46.2323" lon="-1.14582">
        <ele>16.799999237061</ele>
        <time>2015-09-14T07:49:46.000Z</time>
      </trkpt>
      <trkpt lat="46.2323" lon="-1.14582">
        <ele>16.799999237061</ele>
        <time>2015-09-14T07:49:55.000Z</time>
      </trkpt>
      <trkpt lat="46.23231" lon="-1.14591">
        <ele>16.60000038147</ele>
        <time>2015-09-14T07:50:21.000Z</time>
      </trkpt>
      <trkpt lat="46.23234" lon="-1.14607">
        <ele>16.39999961853</ele>
        <time>2015-09-14T07:50:31.000Z</time>
      </trkpt>
      <trkpt lat="46.23237" lon="-1.14619">
        <ele>16</ele>
        <time>2015-09-14T07:50:38.000Z</time>
      </trkpt>
      <trkpt lat="46.2324" lon="-1.14625">
        <ele>16</ele>
        <time>2015-09-14T07:50:41.000Z</time>
      </trkpt>
      <trkpt lat="46.23244" lon="-1.14639">
        <ele>15.60000038147</ele>
        <time>2015-09-14T07:50:49.000Z</time>
      </trkpt>
      <trkpt lat="46.23249" lon="-1.14653">
        <ele>15.199999809265</ele>
        <time>2015-09-14T07:50:57.000Z</time>
      </trkpt>
      <trkpt lat="46.2326" lon="-1.14664">
        <ele>14.60000038147</ele>
        <time>2015-09-14T07:51:06.000Z</time>
      </trkpt>
      <trkpt lat="46.23272" lon="-1.14666">
        <ele>14.199999809265</ele>
        <time>2015-09-14T07:51:15.000Z</time>
      </trkpt>
      <trkpt lat="46.23287" lon="-1.14663">
        <ele>13.60000038147</ele>
        <time>2015-09-14T07:51:26.000Z</time>
      </trkpt>
      <trkpt lat="46.23304" lon="-1.14658">
        <ele>13.199999809265</ele>
        <time>2015-09-14T07:51:38.000Z</time>
      </trkpt>
      <trkpt lat="46.23321" lon="-1.14652">
        <ele>12.800000190735</ele>
        <time>2015-09-14T07:51:50.000Z</time>
      </trkpt>
      <trkpt lat="46.23337" lon="-1.14646">
        <ele>12.60000038147</ele>
        <time>2015-09-14T07:52:02.000Z</time>
      </trkpt>
      <trkpt lat="46.23351" lon="-1.14641">
        <ele>12.60000038147</ele>
        <time>2015-09-14T07:52:12.000Z</time>
      </trkpt>
      <trkpt lat="46.23366" lon="-1.14636">
        <ele>12.39999961853</ele>
        <time>2015-09-14T07:52:23.000Z</time>
      </trkpt>
      <trkpt lat="46.23385" lon="-1.1463">
        <ele>12.199999809265</ele>
        <time>2015-09-14T07:52:36.000Z</time>
      </trkpt>
      <trkpt lat="46.23397" lon="-1.14627">
        <ele>12</ele>
        <time>2015-09-14T07:52:45.000Z</time>
      </trkpt>
      <trkpt lat="46.2341" lon="-1.14623">
        <ele>11.60000038147</ele>
        <time>2015-09-14T07:52:55.000Z</time>
      </trkpt>
      <trkpt lat="46.23423" lon="-1.14621">
        <ele>11.39999961853</ele>
        <time>2015-09-14T07:53:05.000Z</time>
      </trkpt>
      <trkpt lat="46.23435" lon="-1.14618">
        <ele>11</ele>
        <time>2015-09-14T07:53:14.000Z</time>
      </trkpt>
      <trkpt lat="46.23449" lon="-1.14615">
        <ele>10.800000190735</ele>
        <time>2015-09-14T07:53:24.000Z</time>
      </trkpt>
      <trkpt lat="46.23467" lon="-1.14607">
        <ele>10.199999809265</ele>
        <time>2015-09-14T07:53:37.000Z</time>
      </trkpt>
      <trkpt lat="46.23482" lon="-1.14601">
        <ele>9.8000001907349</ele>
        <time>2015-09-14T07:53:48.000Z</time>
      </trkpt>
      <trkpt lat="46.23494" lon="-1.14595">
        <ele>9.3999996185303</ele>
        <time>2015-09-14T07:53:57.000Z</time>
      </trkpt>
      <trkpt lat="46.23508" lon="-1.14589">
        <ele>9</ele>
        <time>2015-09-14T07:54:07.000Z</time>
      </trkpt>
      <trkpt lat="46.23522" lon="-1.14583">
        <ele>8.3999996185303</ele>
        <time>2015-09-14T07:54:17.000Z</time>
      </trkpt>
      <trkpt lat="46.23535" lon="-1.14577">
        <ele>8</ele>
        <time>2015-09-14T07:54:27.000Z</time>
      </trkpt>
      <trkpt lat="46.23559" lon="-1.14565">
        <ele>7.1999998092651</ele>
        <time>2015-09-14T07:54:45.000Z</time>
      </trkpt>
      <trkpt lat="46.23571" lon="-1.14559">
        <ele>7</ele>
        <time>2015-09-14T07:54:54.000Z</time>
      </trkpt>
      <trkpt lat="46.23585" lon="-1.14552">
        <ele>6.8000001907349</ele>
        <time>2015-09-14T07:55:04.000Z</time>
      </trkpt>
      <trkpt lat="46.23598" lon="-1.14545">
        <ele>6.8000001907349</ele>
        <time>2015-09-14T07:55:14.000Z</time>
      </trkpt>
      <trkpt lat="46.23611" lon="-1.14538">
        <ele>6.5999999046326</ele>
        <time>2015-09-14T07:55:23.000Z</time>
      </trkpt>
      <trkpt lat="46.23625" lon="-1.14531">
        <ele>6.5999999046326</ele>
        <time>2015-09-14T07:55:34.000Z</time>
      </trkpt>
      <trkpt lat="46.23636" lon="-1.14523">
        <ele>6.5999999046326</ele>
        <time>2015-09-14T07:55:43.000Z</time>
      </trkpt>
      <trkpt lat="46.23647" lon="-1.14515">
        <ele>6.4000000953674</ele>
        <time>2015-09-14T07:55:53.000Z</time>
      </trkpt>
      <trkpt lat="46.23657" lon="-1.14506">
        <ele>6.1999998092651</ele>
        <time>2015-09-14T07:56:02.000Z</time>
      </trkpt>
      <trkpt lat="46.23668" lon="-1.14495">
        <ele>6</ele>
        <time>2015-09-14T07:56:11.000Z</time>
      </trkpt>
      <trkpt lat="46.2368" lon="-1.14485">
        <ele>5.5999999046326</ele>
        <time>2015-09-14T07:56:21.000Z</time>
      </trkpt>
      <trkpt lat="46.23695" lon="-1.14472">
        <ele>5.4000000953674</ele>
        <time>2015-09-14T07:56:33.000Z</time>
      </trkpt>
      <trkpt lat="46.23708" lon="-1.14462">
        <ele>5.1999998092651</ele>
        <time>2015-09-14T07:56:43.000Z</time>
      </trkpt>
      <trkpt lat="46.2372" lon="-1.1445">
        <ele>5</ele>
        <time>2015-09-14T07:56:53.000Z</time>
      </trkpt>
      <trkpt lat="46.23734" lon="-1.14432">
        <ele>5</ele>
        <time>2015-09-14T07:57:07.000Z</time>
      </trkpt>
      <trkpt lat="46.23743" lon="-1.14418">
        <ele>5.4000000953674</ele>
        <time>2015-09-14T07:57:16.000Z</time>
      </trkpt>
      <trkpt lat="46.23753" lon="-1.14402">
        <ele>5.8000001907349</ele>
        <time>2015-09-14T07:57:26.000Z</time>
      </trkpt>
      <trkpt lat="46.23773" lon="-1.14368">
        <ele>6.4000000953674</ele>
        <time>2015-09-14T07:57:48.000Z</time>
      </trkpt>
      <trkpt lat="46.23783" lon="-1.1435">
        <ele>6.5999999046326</ele>
        <time>2015-09-14T07:57:59.000Z</time>
      </trkpt>
      <trkpt lat="46.23792" lon="-1.1433">
        <ele>6.8000001907349</ele>
        <time>2015-09-14T07:58:11.000Z</time>
      </trkpt>
      <trkpt lat="46.23799" lon="-1.14313">
        <ele>6.8000001907349</ele>
        <time>2015-09-14T07:58:21.000Z</time>
      </trkpt>
      <trkpt lat="46.23807" lon="-1.14292">
        <ele>7.1999998092651</ele>
        <time>2015-09-14T07:58:33.000Z</time>
      </trkpt>
      <trkpt lat="46.23814" lon="-1.14273">
        <ele>7.4000000953674</ele>
        <time>2015-09-14T07:58:45.000Z</time>
      </trkpt>
      <trkpt lat="46.23821" lon="-1.14265">
        <ele>7.4000000953674</ele>
        <time>2015-09-14T07:58:53.000Z</time>
      </trkpt>
      <trkpt lat="46.23827" lon="-1.14267">
        <ele>7.4000000953674</ele>
        <time>2015-09-14T07:58:58.000Z</time>
      </trkpt>
      <trkpt lat="46.23828" lon="-1.14268">
        <ele>7.4000000953674</ele>
        <time>2015-09-14T07:58:59.000Z</time>
      </trkpt>
      <trkpt lat="46.23836" lon="-1.14288">
        <ele>7</ele>
        <time>2015-09-14T07:59:10.000Z</time>
      </trkpt>
      <trkpt lat="46.23843" lon="-1.14312">
        <ele>7.4000000953674</ele>
        <time>2015-09-14T07:59:23.000Z</time>
      </trkpt>
      <trkpt lat="46.23851" lon="-1.14335">
        <ele>7.1999998092651</ele>
        <time>2015-09-14T07:59:35.000Z</time>
      </trkpt>
      <trkpt lat="46.23861" lon="-1.1435">
        <ele>7</ele>
        <time>2015-09-14T07:59:45.000Z</time>
      </trkpt>
      <trkpt lat="46.23874" lon="-1.14359">
        <ele>6.8000001907349</ele>
        <time>2015-09-14T07:59:55.000Z</time>
      </trkpt>
      <trkpt lat="46.23887" lon="-1.14366">
        <ele>6.5999999046326</ele>
        <time>2015-09-14T08:00:05.000Z</time>
      </trkpt>
      <trkpt lat="46.239" lon="-1.14372">
        <ele>6.4000000953674</ele>
        <time>2015-09-14T08:00:14.000Z</time>
      </trkpt>
      <trkpt lat="46.23929" lon="-1.1438">
        <ele>5.5999999046326</ele>
        <time>2015-09-14T08:00:34.000Z</time>
      </trkpt>
      <trkpt lat="46.2394" lon="-1.14382">
        <ele>5.4000000953674</ele>
        <time>2015-09-14T08:00:43.000Z</time>
      </trkpt>
      <trkpt lat="46.23947" lon="-1.14381">
        <ele>5.4000000953674</ele>
        <time>2015-09-14T08:00:49.000Z</time>
      </trkpt>
      <trkpt lat="46.23953" lon="-1.14378">
        <ele>5.4000000953674</ele>
        <time>2015-09-14T08:00:55.000Z</time>
      </trkpt>
      <trkpt lat="46.23962" lon="-1.14375">
        <ele>5.1999998092651</ele>
        <time>2015-09-14T08:01:03.000Z</time>
      </trkpt>
      <trkpt lat="46.2397" lon="-1.14371">
        <ele>5.1999998092651</ele>
        <time>2015-09-14T08:01:10.000Z</time>
      </trkpt>
      <trkpt lat="46.23978" lon="-1.14368">
        <ele>5</ele>
        <time>2015-09-14T08:01:16.000Z</time>
      </trkpt>
      <trkpt lat="46.23978" lon="-1.14368">
        <ele>5</ele>
        <time>2015-09-14T08:01:17.000Z</time>
      </trkpt>
      <trkpt lat="46.23979" lon="-1.14368">
        <ele>5</ele>
        <time>2015-09-14T08:01:18.000Z</time>
      </trkpt>
      <trkpt lat="46.23986" lon="-1.14365">
        <ele>5</ele>
        <time>2015-09-14T08:01:24.000Z</time>
      </trkpt>
      <trkpt lat="46.23994" lon="-1.14362">
        <ele>4.8000001907349</ele>
        <time>2015-09-14T08:01:30.000Z</time>
      </trkpt>
      <trkpt lat="46.24003" lon="-1.14359">
        <ele>4.8000001907349</ele>
        <time>2015-09-14T08:01:37.000Z</time>
      </trkpt>
      <trkpt lat="46.24004" lon="-1.14359">
        <ele>4.8000001907349</ele>
        <time>2015-09-14T08:01:38.000Z</time>
      </trkpt>
      <trkpt lat="46.24013" lon="-1.14358">
        <ele>4.5999999046326</ele>
        <time>2015-09-14T08:01:44.000Z</time>
      </trkpt>
      <trkpt lat="46.24019" lon="-1.14356">
        <ele>4.4000000953674</ele>
        <time>2015-09-14T08:01:49.000Z</time>
      </trkpt>
      <trkpt lat="46.24027" lon="-1.14354">
        <ele>4.4000000953674</ele>
        <time>2015-09-14T08:01:56.000Z</time>
      </trkpt>
      <trkpt lat="46.24034" lon="-1.1435">
        <ele>4.1999998092651</ele>
        <time>2015-09-14T08:02:01.000Z</time>
      </trkpt>
      <trkpt lat="46.24044" lon="-1.14346">
        <ele>4</ele>
        <time>2015-09-14T08:02:08.000Z</time>
      </trkpt>
      <trkpt lat="46.24057" lon="-1.14345">
        <ele>3.7999999523163</ele>
        <time>2015-09-14T08:02:16.000Z</time>
      </trkpt>
      <trkpt lat="46.24065" lon="-1.14351">
        <ele>3.4000000953674</ele>
        <time>2015-09-14T08:02:23.000Z</time>
      </trkpt>
      <trkpt lat="46.24069" lon="-1.14374">
        <ele>3</ele>
        <time>2015-09-14T08:02:35.000Z</time>
      </trkpt>
      <trkpt lat="46.24071" lon="-1.14386">
        <ele>2.7999999523163</ele>
        <time>2015-09-14T08:02:42.000Z</time>
      </trkpt>
      <trkpt lat="46.24072" lon="-1.14391">
        <ele>2.7999999523163</ele>
        <time>2015-09-14T08:02:48.000Z</time>
      </trkpt>
      <trkpt lat="46.24076" lon="-1.14401">
        <ele>3</ele>
        <time>2015-09-14T08:02:55.000Z</time>
      </trkpt>
      <trkpt lat="46.24085" lon="-1.14412">
        <ele>3.2000000476837</ele>
        <time>2015-09-14T08:03:03.000Z</time>
      </trkpt>
      <trkpt lat="46.24099" lon="-1.14419">
        <ele>3.2000000476837</ele>
        <time>2015-09-14T08:03:14.000Z</time>
      </trkpt>
      <trkpt lat="46.24113" lon="-1.14421">
        <ele>3</ele>
        <time>2015-09-14T08:03:23.000Z</time>
      </trkpt>
      <trkpt lat="46.24127" lon="-1.14419">
        <ele>2.5999999046326</ele>
        <time>2015-09-14T08:03:33.000Z</time>
      </trkpt>
      <trkpt lat="46.24143" lon="-1.14414">
        <ele>1.7999999523163</ele>
        <time>2015-09-14T08:03:45.000Z</time>
      </trkpt>
      <trkpt lat="46.24156" lon="-1.14419">
        <ele>1.3999999761581</ele>
        <time>2015-09-14T08:03:55.000Z</time>
      </trkpt>
      <trkpt lat="46.24168" lon="-1.14423">
        <ele>1.2000000476837</ele>
        <time>2015-09-14T08:04:04.000Z</time>
      </trkpt>
      <trkpt lat="46.24172" lon="-1.1442">
        <ele>1</ele>
        <time>2015-09-14T08:04:08.000Z</time>
      </trkpt>
      <trkpt lat="46.24175" lon="-1.14418">
        <ele>1</ele>
        <time>2015-09-14T08:04:12.000Z</time>
      </trkpt>
      <trkpt lat="46.24178" lon="-1.14418">
        <ele>1</ele>
        <time>2015-09-14T08:04:21.000Z</time>
      </trkpt>
      <trkpt lat="46.24178" lon="-1.14417">
        <ele>1</ele>
        <time>2015-09-14T08:04:39.000Z</time>
      </trkpt>
      <trkpt lat="46.24177" lon="-1.14417">
        <ele>1</ele>
        <time>2015-09-14T08:04:53.000Z</time>
      </trkpt>
      <trkpt lat="46.24178" lon="-1.14414">
        <ele>1</ele>
        <time>2015-09-14T08:05:49.000Z</time>
      </trkpt>
      <trkpt lat="46.24172" lon="-1.14415">
        <ele>1.2000000476837</ele>
        <time>2015-09-14T08:05:54.000Z</time>
      </trkpt>
      <trkpt lat="46.24169" lon="-1.14419">
        <ele>1.2000000476837</ele>
        <time>2015-09-14T08:05:58.000Z</time>
      </trkpt>
      <trkpt lat="46.24164" lon="-1.1442">
        <ele>1.2000000476837</ele>
        <time>2015-09-14T08:06:02.000Z</time>
      </trkpt>
      <trkpt lat="46.24156" lon="-1.14422">
        <ele>1.3999999761581</ele>
        <time>2015-09-14T08:06:09.000Z</time>
      </trkpt>
      <trkpt lat="46.24153" lon="-1.14421">
        <ele>1.6000000238419</ele>
        <time>2015-09-14T08:06:13.000Z</time>
      </trkpt>
      <trkpt lat="46.24152" lon="-1.1442">
        <ele>1.6000000238419</ele>
        <time>2015-09-14T08:06:15.000Z</time>
      </trkpt>
      <trkpt lat="46.24153" lon="-1.14419">
        <ele>1.6000000238419</ele>
        <time>2015-09-14T08:06:26.000Z</time>
      </trkpt>
      <trkpt lat="46.24158" lon="-1.14422">
        <ele>1.3999999761581</ele>
        <time>2015-09-14T08:07:31.000Z</time>
      </trkpt>
      <trkpt lat="46.24168" lon="-1.14419">
        <ele>1.2000000476837</ele>
        <time>2015-09-14T08:07:39.000Z</time>
      </trkpt>
      <trkpt lat="46.24172" lon="-1.14418">
        <ele>1</ele>
        <time>2015-09-14T08:07:43.000Z</time>
      </trkpt>
      <trkpt lat="46.24173" lon="-1.14418">
        <ele>1</ele>
        <time>2015-09-14T08:07:52.000Z</time>
      </trkpt>
      <trkpt lat="46.24172" lon="-1.1442">
        <ele>1</ele>
        <time>2015-09-14T08:08:01.000Z</time>
      </trkpt>
      <trkpt lat="46.24173" lon="-1.14418">
        <ele>1</ele>
        <time>2015-09-14T08:08:07.000Z</time>
      </trkpt>
      <trkpt lat="46.2418" lon="-1.14417">
        <ele>1</ele>
        <time>2015-09-14T08:08:29.000Z</time>
      </trkpt>
      <trkpt lat="46.24181" lon="-1.14418">
        <ele>0.80000001192093</ele>
        <time>2015-09-14T08:10:45.000Z</time>
      </trkpt>
      <trkpt lat="46.2418" lon="-1.14418">
        <ele>0.80000001192093</ele>
        <time>2015-09-14T08:10:55.000Z</time>
      </trkpt>
      <trkpt lat="46.24179" lon="-1.14418">
        <ele>1</ele>
        <time>2015-09-14T08:11:09.000Z</time>
      </trkpt>
      <trkpt lat="46.24179" lon="-1.14413">
        <ele>1</ele>
        <time>2015-09-14T08:11:53.000Z</time>
      </trkpt>
      <trkpt lat="46.24174" lon="-1.14414">
        <ele>1</ele>
        <time>2015-09-14T08:12:00.000Z</time>
      </trkpt>
      <trkpt lat="46.24165" lon="-1.14414">
        <ele>1.2000000476837</ele>
        <time>2015-09-14T08:12:09.000Z</time>
      </trkpt>
      <trkpt lat="46.24154" lon="-1.14409">
        <ele>1.6000000238419</ele>
        <time>2015-09-14T08:12:19.000Z</time>
      </trkpt>
      <trkpt lat="46.24146" lon="-1.14408">
        <ele>1.7999999523163</ele>
        <time>2015-09-14T08:12:26.000Z</time>
      </trkpt>
      <trkpt lat="46.24136" lon="-1.14411">
        <ele>2.2000000476837</ele>
        <time>2015-09-14T08:12:33.000Z</time>
      </trkpt>
      <trkpt lat="46.24122" lon="-1.14415">
        <ele>2.7999999523163</ele>
        <time>2015-09-14T08:12:44.000Z</time>
      </trkpt>
      <trkpt lat="46.24108" lon="-1.14414">
        <ele>3</ele>
        <time>2015-09-14T08:12:54.000Z</time>
      </trkpt>
      <trkpt lat="46.24095" lon="-1.14412">
        <ele>3</ele>
        <time>2015-09-14T08:13:03.000Z</time>
      </trkpt>
      <trkpt lat="46.2409" lon="-1.14412">
        <ele>3</ele>
        <time>2015-09-14T08:13:07.000Z</time>
      </trkpt>
      <trkpt lat="46.24081" lon="-1.14417">
        <ele>3.4000000953674</ele>
        <time>2015-09-14T08:13:14.000Z</time>
      </trkpt>
      <trkpt lat="46.2408" lon="-1.14423">
        <ele>3.5999999046326</ele>
        <time>2015-09-14T08:13:18.000Z</time>
      </trkpt>
      <trkpt lat="46.24078" lon="-1.14449">
        <ele>4.1999998092651</ele>
        <time>2015-09-14T08:13:33.000Z</time>
      </trkpt>
      <trkpt lat="46.24079" lon="-1.14469">
        <ele>4.1999998092651</ele>
        <time>2015-09-14T08:13:42.000Z</time>
      </trkpt>
      <trkpt lat="46.2408" lon="-1.14492">
        <ele>4.1999998092651</ele>
        <time>2015-09-14T08:13:52.000Z</time>
      </trkpt>
      <trkpt lat="46.2408" lon="-1.14514">
        <ele>4.1999998092651</ele>
        <time>2015-09-14T08:14:02.000Z</time>
      </trkpt>
      <trkpt lat="46.2408" lon="-1.14535">
        <ele>4.1999998092651</ele>
        <time>2015-09-14T08:14:11.000Z</time>
      </trkpt>
      <trkpt lat="46.2408" lon="-1.1455">
        <ele>4</ele>
        <time>2015-09-14T08:14:18.000Z</time>
      </trkpt>
      <trkpt lat="46.24082" lon="-1.14566">
        <ele>3.7999999523163</ele>
        <time>2015-09-14T08:14:26.000Z</time>
      </trkpt>
      <trkpt lat="46.24088" lon="-1.14585">
        <ele>2.7999999523163</ele>
        <time>2015-09-14T08:14:36.000Z</time>
      </trkpt>
      <trkpt lat="46.24099" lon="-1.14604">
        <ele>1.7999999523163</ele>
        <time>2015-09-14T08:14:48.000Z</time>
      </trkpt>
      <trkpt lat="46.24104" lon="-1.1462">
        <ele>2</ele>
        <time>2015-09-14T08:14:57.000Z</time>
      </trkpt>
      <trkpt lat="46.24097" lon="-1.1463">
        <ele>2.2000000476837</ele>
        <time>2015-09-14T08:15:05.000Z</time>
      </trkpt>
      <trkpt lat="46.24095" lon="-1.14631">
        <ele>2.2000000476837</ele>
        <time>2015-09-14T08:15:06.000Z</time>
      </trkpt>
      <trkpt lat="46.24081" lon="-1.14642">
        <ele>2.7999999523163</ele>
        <time>2015-09-14T08:15:18.000Z</time>
      </trkpt>
      <trkpt lat="46.2407" lon="-1.14649">
        <ele>3</ele>
        <time>2015-09-14T08:15:27.000Z</time>
      </trkpt>
      <trkpt lat="46.24057" lon="-1.14658">
        <ele>2.7999999523163</ele>
        <time>2015-09-14T08:15:37.000Z</time>
      </trkpt>
      <trkpt lat="46.24044" lon="-1.14664">
        <ele>2.5999999046326</ele>
        <time>2015-09-14T08:15:46.000Z</time>
      </trkpt>
      <trkpt lat="46.24033" lon="-1.1467">
        <ele>2.4000000953674</ele>
        <time>2015-09-14T08:15:55.000Z</time>
      </trkpt>
      <trkpt lat="46.24018" lon="-1.14683">
        <ele>2.2000000476837</ele>
        <time>2015-09-14T08:16:07.000Z</time>
      </trkpt>
      <trkpt lat="46.24007" lon="-1.14692">
        <ele>2</ele>
        <time>2015-09-14T08:16:16.000Z</time>
      </trkpt>
      <trkpt lat="46.23991" lon="-1.14706">
        <ele>1.6000000238419</ele>
        <time>2015-09-14T08:16:29.000Z</time>
      </trkpt>
      <trkpt lat="46.23976" lon="-1.14718">
        <ele>1.3999999761581</ele>
        <time>2015-09-14T08:16:41.000Z</time>
      </trkpt>
      <trkpt lat="46.23965" lon="-1.14724">
        <ele>1.7999999523163</ele>
        <time>2015-09-14T08:16:50.000Z</time>
      </trkpt>
      <trkpt lat="46.23952" lon="-1.14726">
        <ele>2.4000000953674</ele>
        <time>2015-09-14T08:17:00.000Z</time>
      </trkpt>
      <trkpt lat="46.23942" lon="-1.14733">
        <ele>2.5999999046326</ele>
        <time>2015-09-14T08:17:08.000Z</time>
      </trkpt>
      <trkpt lat="46.23932" lon="-1.14746">
        <ele>2.5999999046326</ele>
        <time>2015-09-14T08:17:18.000Z</time>
      </trkpt>
      <trkpt lat="46.23908" lon="-1.14777">
        <ele>2.5999999046326</ele>
        <time>2015-09-14T08:17:41.000Z</time>
      </trkpt>
      <trkpt lat="46.23897" lon="-1.1479">
        <ele>2.5999999046326</ele>
        <time>2015-09-14T08:17:51.000Z</time>
      </trkpt>
      <trkpt lat="46.23885" lon="-1.14803">
        <ele>2.2000000476837</ele>
        <time>2015-09-14T08:18:02.000Z</time>
      </trkpt>
      <trkpt lat="46.23873" lon="-1.14813">
        <ele>2</ele>
        <time>2015-09-14T08:18:12.000Z</time>
      </trkpt>
      <trkpt lat="46.2386" lon="-1.14823">
        <ele>1.6000000238419</ele>
        <time>2015-09-14T08:18:22.000Z</time>
      </trkpt>
      <trkpt lat="46.23858" lon="-1.14825">
        <ele>1.3999999761581</ele>
        <time>2015-09-14T08:18:24.000Z</time>
      </trkpt>
      <trkpt lat="46.23849" lon="-1.14832">
        <ele>1.2000000476837</ele>
        <time>2015-09-14T08:18:31.000Z</time>
      </trkpt>
      <trkpt lat="46.23838" lon="-1.14843">
        <ele>0.80000001192093</ele>
        <time>2015-09-14T08:18:41.000Z</time>
      </trkpt>
      <trkpt lat="46.23825" lon="-1.14859">
        <ele>0.20000000298023</ele>
        <time>2015-09-14T08:18:53.000Z</time>
      </trkpt>
      <trkpt lat="46.23813" lon="-1.14876">
        <ele>-0.40000000596046</ele>
        <time>2015-09-14T08:19:05.000Z</time>
      </trkpt>
      <trkpt lat="46.238" lon="-1.14892">
        <ele>-0.40000000596046</ele>
        <time>2015-09-14T08:19:17.000Z</time>
      </trkpt>
      <trkpt lat="46.2378" lon="-1.14924">
        <ele>0.60000002384186</ele>
        <time>2015-09-14T08:19:39.000Z</time>
      </trkpt>
      <trkpt lat="46.2377" lon="-1.1494">
        <ele>1.2000000476837</ele>
        <time>2015-09-14T08:19:50.000Z</time>
      </trkpt>
      <trkpt lat="46.2376" lon="-1.14954">
        <ele>1.6000000238419</ele>
        <time>2015-09-14T08:20:00.000Z</time>
      </trkpt>
      <trkpt lat="46.23749" lon="-1.14974">
        <ele>2.4000000953674</ele>
        <time>2015-09-14T08:20:13.000Z</time>
      </trkpt>
      <trkpt lat="46.23741" lon="-1.14989">
        <ele>2.5999999046326</ele>
        <time>2015-09-14T08:20:22.000Z</time>
      </trkpt>
      <trkpt lat="46.23733" lon="-1.15009">
        <ele>2.2000000476837</ele>
        <time>2015-09-14T08:20:33.000Z</time>
      </trkpt>
      <trkpt lat="46.23727" lon="-1.1503">
        <ele>1.7999999523163</ele>
        <time>2015-09-14T08:20:44.000Z</time>
      </trkpt>
      <trkpt lat="46.23722" lon="-1.15056">
        <ele>1.6000000238419</ele>
        <time>2015-09-14T08:20:57.000Z</time>
      </trkpt>
      <trkpt lat="46.23718" lon="-1.15079">
        <ele>1.7999999523163</ele>
        <time>2015-09-14T08:21:08.000Z</time>
      </trkpt>
      <trkpt lat="46.23714" lon="-1.15101">
        <ele>2.5999999046326</ele>
        <time>2015-09-14T08:21:19.000Z</time>
      </trkpt>
      <trkpt lat="46.2371" lon="-1.15126">
        <ele>3.5999999046326</ele>
        <time>2015-09-14T08:21:31.000Z</time>
      </trkpt>
      <trkpt lat="46.23706" lon="-1.1515">
        <ele>4.1999998092651</ele>
        <time>2015-09-14T08:21:43.000Z</time>
      </trkpt>
      <trkpt lat="46.23701" lon="-1.15173">
        <ele>4</ele>
        <time>2015-09-14T08:21:54.000Z</time>
      </trkpt>
      <trkpt lat="46.23697" lon="-1.15194">
        <ele>4</ele>
        <time>2015-09-14T08:22:04.000Z</time>
      </trkpt>
      <trkpt lat="46.23692" lon="-1.15216">
        <ele>4</ele>
        <time>2015-09-14T08:22:15.000Z</time>
      </trkpt>
      <trkpt lat="46.23687" lon="-1.15239">
        <ele>4</ele>
        <time>2015-09-14T08:22:26.000Z</time>
      </trkpt>
      <trkpt lat="46.23679" lon="-1.15265">
        <ele>4</ele>
        <time>2015-09-14T08:22:39.000Z</time>
      </trkpt>
      <trkpt lat="46.23675" lon="-1.15289">
        <ele>4</ele>
        <time>2015-09-14T08:22:51.000Z</time>
      </trkpt>
      <trkpt lat="46.23671" lon="-1.15307">
        <ele>4</ele>
        <time>2015-09-14T08:23:00.000Z</time>
      </trkpt>
      <trkpt lat="46.23664" lon="-1.15328">
        <ele>10.60000038147</ele>
        <time>2015-09-14T08:23:11.000Z</time>
      </trkpt>
      <trkpt lat="46.23657" lon="-1.15353">
        <ele>10.60000038147</ele>
        <time>2015-09-14T08:23:24.000Z</time>
      </trkpt>
      <trkpt lat="46.2365" lon="-1.15379">
        <ele>10.60000038147</ele>
        <time>2015-09-14T08:23:37.000Z</time>
      </trkpt>
      <trkpt lat="46.23645" lon="-1.15401">
        <ele>4</ele>
        <time>2015-09-14T08:23:48.000Z</time>
      </trkpt>
      <trkpt lat="46.23642" lon="-1.15423">
        <ele>4</ele>
        <time>2015-09-14T08:23:59.000Z</time>
      </trkpt>
      <trkpt lat="46.23637" lon="-1.15447">
        <ele>4.1999998092651</ele>
        <time>2015-09-14T08:24:11.000Z</time>
      </trkpt>
      <trkpt lat="46.23634" lon="-1.1546">
        <ele>4.1999998092651</ele>
        <time>2015-09-14T08:24:18.000Z</time>
      </trkpt>
      <trkpt lat="46.23629" lon="-1.15481">
        <ele>4.1999998092651</ele>
        <time>2015-09-14T08:24:29.000Z</time>
      </trkpt>
      <trkpt lat="46.23625" lon="-1.15507">
        <ele>3.7999999523163</ele>
        <time>2015-09-14T08:24:42.000Z</time>
      </trkpt>
      <trkpt lat="46.23626" lon="-1.15529">
        <ele>3.7999999523163</ele>
        <time>2015-09-14T08:24:53.000Z</time>
      </trkpt>
      <trkpt lat="46.23624" lon="-1.15546">
        <ele>3.7999999523163</ele>
        <time>2015-09-14T08:25:02.000Z</time>
      </trkpt>
      <trkpt lat="46.2362" lon="-1.15562">
        <ele>2.2000000476837</ele>
        <time>2015-09-14T08:25:11.000Z</time>
      </trkpt>
      <trkpt lat="46.23615" lon="-1.15577">
        <ele>2</ele>
        <time>2015-09-14T08:25:20.000Z</time>
      </trkpt>
      <trkpt lat="46.23609" lon="-1.156">
        <ele>1.6000000238419</ele>
        <time>2015-09-14T08:25:33.000Z</time>
      </trkpt>
      <trkpt lat="46.23603" lon="-1.15622">
        <ele>1.3999999761581</ele>
        <time>2015-09-14T08:25:47.000Z</time>
      </trkpt>
      <trkpt lat="46.23596" lon="-1.15646">
        <ele>0.60000002384186</ele>
        <time>2015-09-14T08:26:00.000Z</time>
      </trkpt>
      <trkpt lat="46.23591" lon="-1.15665">
        <ele>0.40000000596046</ele>
        <time>2015-09-14T08:26:11.000Z</time>
      </trkpt>
      <trkpt lat="46.23585" lon="-1.15683">
        <ele>0.20000000298023</ele>
        <time>2015-09-14T08:26:21.000Z</time>
      </trkpt>
      <trkpt lat="46.2358" lon="-1.15703">
        <ele>3.6</ele>
        <time>2015-09-14T08:26:33.000Z</time>
      </trkpt>
      <trkpt lat="46.23573" lon="-1.15725">
        <ele>2.6</ele>
        <time>2015-09-14T08:26:45.000Z</time>
      </trkpt>
      <trkpt lat="46.23568" lon="-1.15746">
        <ele>2.7</ele>
        <time>2015-09-14T08:26:56.000Z</time>
      </trkpt>
      <trkpt lat="46.23562" lon="-1.15764">
        <ele>3.3</ele>
        <time>2015-09-14T08:27:06.000Z</time>
      </trkpt>
      <trkpt lat="46.23559" lon="-1.15778">
        <ele>3.6</ele>
        <time>2015-09-14T08:27:14.000Z</time>
      </trkpt>
      <trkpt lat="46.23552" lon="-1.15799">
        <ele>0.20000000298023</ele>
        <time>2015-09-14T08:27:25.000Z</time>
      </trkpt>
      <trkpt lat="46.23545" lon="-1.15816">
        <ele>0.40000000596046</ele>
        <time>2015-09-14T08:27:34.000Z</time>
      </trkpt>
      <trkpt lat="46.23536" lon="-1.15834">
        <ele>0.40000000596046</ele>
        <time>2015-09-14T08:27:44.000Z</time>
      </trkpt>
      <trkpt lat="46.23529" lon="-1.15848">
        <ele>0.40000000596046</ele>
        <time>2015-09-14T08:27:54.000Z</time>
      </trkpt>
      <trkpt lat="46.23523" lon="-1.15855">
        <ele>0.60000002384186</ele>
        <time>2015-09-14T08:30:09.000Z</time>
      </trkpt>
      <trkpt lat="46.23512" lon="-1.15866">
        <ele>0.60000002384186</ele>
        <time>2015-09-14T08:30:19.000Z</time>
      </trkpt>
      <trkpt lat="46.23509" lon="-1.15871">
        <ele>0.80000001192093</ele>
        <time>2015-09-14T08:30:23.000Z</time>
      </trkpt>
      <trkpt lat="46.235" lon="-1.15879">
        <ele>0.80000001192093</ele>
        <time>2015-09-14T08:30:31.000Z</time>
      </trkpt>
      <trkpt lat="46.23488" lon="-1.15892">
        <ele>1</ele>
        <time>2015-09-14T08:30:41.000Z</time>
      </trkpt>
      <trkpt lat="46.23474" lon="-1.15906">
        <ele>1.2000000476837</ele>
        <time>2015-09-14T08:30:53.000Z</time>
      </trkpt>
      <trkpt lat="46.23461" lon="-1.15917">
        <ele>1.6000000238419</ele>
        <time>2015-09-14T08:31:04.000Z</time>
      </trkpt>
      <trkpt lat="46.2345" lon="-1.15925">
        <ele>1.7999999523163</ele>
        <time>2015-09-14T08:31:13.000Z</time>
      </trkpt>
      <trkpt lat="46.23439" lon="-1.15934">
        <ele>2</ele>
        <time>2015-09-14T08:31:22.000Z</time>
      </trkpt>
      <trkpt lat="46.23426" lon="-1.15938">
        <ele>2.4000000953674</ele>
        <time>2015-09-14T08:31:32.000Z</time>
      </trkpt>
      <trkpt lat="46.23416" lon="-1.15939">
        <ele>3</ele>
        <time>2015-09-14T08:31:40.000Z</time>
      </trkpt>
      <trkpt lat="46.23405" lon="-1.15942">
        <ele>3.4000000953674</ele>
        <time>2015-09-14T08:31:48.000Z</time>
      </trkpt>
      <trkpt lat="46.23392" lon="-1.15946">
        <ele>5</ele>
        <time>2015-09-14T08:31:57.000Z</time>
      </trkpt>
      <trkpt lat="46.23379" lon="-1.15953">
        <ele>4.5999999046326</ele>
        <time>2015-09-14T08:32:07.000Z</time>
      </trkpt>
      <trkpt lat="46.23365" lon="-1.15958">
        <ele>4.1999998092651</ele>
        <time>2015-09-14T08:32:17.000Z</time>
      </trkpt>
      <trkpt lat="46.23351" lon="-1.15963">
        <ele>4</ele>
        <time>2015-09-14T08:32:28.000Z</time>
      </trkpt>
      <trkpt lat="46.23333" lon="-1.15971">
        <ele>3.4000000953674</ele>
        <time>2015-09-14T08:32:41.000Z</time>
      </trkpt>
      <trkpt lat="46.23321" lon="-1.15976">
        <ele>3.2000000476837</ele>
        <time>2015-09-14T08:32:50.000Z</time>
      </trkpt>
      <trkpt lat="46.23309" lon="-1.15983">
        <ele>2.7999999523163</ele>
        <time>2015-09-14T08:32:59.000Z</time>
      </trkpt>
      <trkpt lat="46.23299" lon="-1.1599">
        <ele>2.5999999046326</ele>
        <time>2015-09-14T08:33:07.000Z</time>
      </trkpt>
      <trkpt lat="46.23289" lon="-1.16001">
        <ele>2.2000000476837</ele>
        <time>2015-09-14T08:33:16.000Z</time>
      </trkpt>
      <trkpt lat="46.23276" lon="-1.16011">
        <ele>2</ele>
        <time>2015-09-14T08:33:26.000Z</time>
      </trkpt>
      <trkpt lat="46.23259" lon="-1.16024">
        <ele>1.6000000238419</ele>
        <time>2015-09-14T08:33:39.000Z</time>
      </trkpt>
      <trkpt lat="46.23247" lon="-1.16032">
        <ele>1.6000000238419</ele>
        <time>2015-09-14T08:33:48.000Z</time>
      </trkpt>
      <trkpt lat="46.23234" lon="-1.1604">
        <ele>1.6000000238419</ele>
        <time>2015-09-14T08:33:58.000Z</time>
      </trkpt>
      <trkpt lat="46.23222" lon="-1.16046">
        <ele>1.6000000238419</ele>
        <time>2015-09-14T08:34:07.000Z</time>
      </trkpt>
      <trkpt lat="46.23207" lon="-1.16055">
        <ele>1.6000000238419</ele>
        <time>2015-09-14T08:34:18.000Z</time>
      </trkpt>
      <trkpt lat="46.23191" lon="-1.16063">
        <ele>1.7999999523163</ele>
        <time>2015-09-14T08:34:30.000Z</time>
      </trkpt>
      <trkpt lat="46.23175" lon="-1.16067">
        <ele>2.4000000953674</ele>
        <time>2015-09-14T08:34:41.000Z</time>
      </trkpt>
      <trkpt lat="46.23161" lon="-1.16065">
        <ele>3.2000000476837</ele>
        <time>2015-09-14T08:34:51.000Z</time>
      </trkpt>
      <trkpt lat="46.23146" lon="-1.16055">
        <ele>4.1999998092651</ele>
        <time>2015-09-14T08:35:03.000Z</time>
      </trkpt>
      <trkpt lat="46.23134" lon="-1.1606">
        <ele>4</ele>
        <time>2015-09-14T08:35:12.000Z</time>
      </trkpt>
      <trkpt lat="46.23117" lon="-1.16075">
        <ele>3.4000000953674</ele>
        <time>2015-09-14T08:35:26.000Z</time>
      </trkpt>
      <trkpt lat="46.23107" lon="-1.16087">
        <ele>2.7999999523163</ele>
        <time>2015-09-14T08:35:35.000Z</time>
      </trkpt>
      <trkpt lat="46.23094" lon="-1.16103">
        <ele>2</ele>
        <time>2015-09-14T08:35:47.000Z</time>
      </trkpt>
      <trkpt lat="46.23083" lon="-1.16116">
        <ele>1.3999999761581</ele>
        <time>2015-09-14T08:35:57.000Z</time>
      </trkpt>
      <trkpt lat="46.2307" lon="-1.1613">
        <ele>0.60000002384186</ele>
        <time>2015-09-14T08:36:08.000Z</time>
      </trkpt>
      <trkpt lat="46.23058" lon="-1.16144">
        <ele>0.40000000596046</ele>
        <time>2015-09-14T08:36:19.000Z</time>
      </trkpt>
      <trkpt lat="46.23048" lon="-1.16156">
        <ele>1</ele>
        <time>2015-09-14T08:36:28.000Z</time>
      </trkpt>
      <trkpt lat="46.23036" lon="-1.16173">
        <ele>1.6000000238419</ele>
        <time>2015-09-14T08:36:40.000Z</time>
      </trkpt>
      <trkpt lat="46.23024" lon="-1.16192">
        <ele>2.7999999523163</ele>
        <time>2015-09-14T08:36:52.000Z</time>
      </trkpt>
      <trkpt lat="46.23016" lon="-1.16208">
        <ele>3.5999999046326</ele>
        <time>2015-09-14T08:37:02.000Z</time>
      </trkpt>
      <trkpt lat="46.23009" lon="-1.16226">
        <ele>4.5999999046326</ele>
        <time>2015-09-14T08:37:12.000Z</time>
      </trkpt>
      <trkpt lat="46.22994" lon="-1.16266">
        <ele>2.2000000476837</ele>
        <time>2015-09-14T08:37:34.000Z</time>
      </trkpt>
      <trkpt lat="46.22985" lon="-1.16283">
        <ele>1.3999999761581</ele>
        <time>2015-09-14T08:37:44.000Z</time>
      </trkpt>
      <trkpt lat="46.22977" lon="-1.16297">
        <ele>1</ele>
        <time>2015-09-14T08:37:53.000Z</time>
      </trkpt>
      <trkpt lat="46.22967" lon="-1.16312">
        <ele>1</ele>
        <time>2015-09-14T08:38:03.000Z</time>
      </trkpt>
      <trkpt lat="46.22958" lon="-1.16325">
        <ele>1.2000000476837</ele>
        <time>2015-09-14T08:38:12.000Z</time>
      </trkpt>
      <trkpt lat="46.22948" lon="-1.1634">
        <ele>1.6000000238419</ele>
        <time>2015-09-14T08:38:22.000Z</time>
      </trkpt>
      <trkpt lat="46.22939" lon="-1.16355">
        <ele>2</ele>
        <time>2015-09-14T08:38:32.000Z</time>
      </trkpt>
      <trkpt lat="46.2293" lon="-1.16371">
        <ele>2.7999999523163</ele>
        <time>2015-09-14T08:38:42.000Z</time>
      </trkpt>
      <trkpt lat="46.2292" lon="-1.16386">
        <ele>3.4000000953674</ele>
        <time>2015-09-14T08:38:52.000Z</time>
      </trkpt>
      <trkpt lat="46.2291" lon="-1.164">
        <ele>4</ele>
        <time>2015-09-14T08:39:02.000Z</time>
      </trkpt>
      <trkpt lat="46.22899" lon="-1.16419">
        <ele>4</ele>
        <time>2015-09-14T08:39:14.000Z</time>
      </trkpt>
      <trkpt lat="46.22888" lon="-1.16435">
        <ele>5.5999999046326</ele>
        <time>2015-09-14T08:39:25.000Z</time>
      </trkpt>
      <trkpt lat="46.22877" lon="-1.16456">
        <ele>6.4000000953674</ele>
        <time>2015-09-14T08:39:38.000Z</time>
      </trkpt>
      <trkpt lat="46.22868" lon="-1.16477">
        <ele>7.4000000953674</ele>
        <time>2015-09-14T08:39:50.000Z</time>
      </trkpt>
      <trkpt lat="46.2286" lon="-1.16497">
        <ele>5.1999998092651</ele>
        <time>2015-09-14T08:40:01.000Z</time>
      </trkpt>
      <trkpt lat="46.22853" lon="-1.1652">
        <ele>4</ele>
        <time>2015-09-14T08:40:13.000Z</time>
      </trkpt>
      <trkpt lat="46.22848" lon="-1.1654">
        <ele>3.7999999523163</ele>
        <time>2015-09-14T08:40:23.000Z</time>
      </trkpt>
      <trkpt lat="46.2284" lon="-1.16559">
        <ele>3.5999999046326</ele>
        <time>2015-09-14T08:40:34.000Z</time>
      </trkpt>
      <trkpt lat="46.22827" lon="-1.16577">
        <ele>3</ele>
        <time>2015-09-14T08:40:46.000Z</time>
      </trkpt>
      <trkpt lat="46.22817" lon="-1.16588">
        <ele>3</ele>
        <time>2015-09-14T08:40:55.000Z</time>
      </trkpt>
      <trkpt lat="46.22803" lon="-1.16602">
        <ele>4</ele>
        <time>2015-09-14T08:41:06.000Z</time>
      </trkpt>
      <trkpt lat="46.2279" lon="-1.16607">
        <ele>4.4000000953674</ele>
        <time>2015-09-14T08:41:16.000Z</time>
      </trkpt>
      <trkpt lat="46.2278" lon="-1.16602">
        <ele>4.4000000953674</ele>
        <time>2015-09-14T08:41:24.000Z</time>
      </trkpt>
      <trkpt lat="46.22778" lon="-1.16598">
        <ele>4.1999998092651</ele>
        <time>2015-09-14T08:41:32.000Z</time>
      </trkpt>
      <trkpt lat="46.22778" lon="-1.16596">
        <ele>4.1999998092651</ele>
        <time>2015-09-14T08:41:38.000Z</time>
      </trkpt>
      <trkpt lat="46.22776" lon="-1.16595">
        <ele>4.4000000953674</ele>
        <time>2015-09-14T08:42:39.000Z</time>
      </trkpt>
      <trkpt lat="46.22776" lon="-1.16586">
        <ele>4.4000000953674</ele>
        <time>2015-09-14T08:43:52.000Z</time>
      </trkpt>
      <trkpt lat="46.22777" lon="-1.16579">
        <ele>4.4000000953674</ele>
        <time>2015-09-14T08:44:00.000Z</time>
      </trkpt>
      <trkpt lat="46.22777" lon="-1.16573">
        <ele>4.5999999046326</ele>
        <time>2015-09-14T08:44:10.000Z</time>
      </trkpt>
      <trkpt lat="46.22779" lon="-1.1656">
        <ele>4.5999999046326</ele>
        <time>2015-09-14T08:44:19.000Z</time>
      </trkpt>
      <trkpt lat="46.22781" lon="-1.16548">
        <ele>5.4000000953674</ele>
        <time>2015-09-14T08:44:27.000Z</time>
      </trkpt>
      <trkpt lat="46.22784" lon="-1.16526">
        <ele>6.4000000953674</ele>
        <time>2015-09-14T08:44:39.000Z</time>
      </trkpt>
      <trkpt lat="46.22789" lon="-1.16502">
        <ele>7.5999999046326</ele>
        <time>2015-09-14T08:44:52.000Z</time>
      </trkpt>
      <trkpt lat="46.22793" lon="-1.16481">
        <ele>7.8000001907349</ele>
        <time>2015-09-14T08:45:04.000Z</time>
      </trkpt>
      <trkpt lat="46.22798" lon="-1.16457">
        <ele>8</ele>
        <time>2015-09-14T08:45:16.000Z</time>
      </trkpt>
      <trkpt lat="46.22801" lon="-1.16441">
        <ele>8.3999996185303</ele>
        <time>2015-09-14T08:45:25.000Z</time>
      </trkpt>
      <trkpt lat="46.22804" lon="-1.16421">
        <ele>8.6000003814697</ele>
        <time>2015-09-14T08:45:35.000Z</time>
      </trkpt>
      <trkpt lat="46.22806" lon="-1.16409">
        <ele>8.8000001907349</ele>
        <time>2015-09-14T08:45:42.000Z</time>
      </trkpt>
      <trkpt lat="46.2281" lon="-1.1639">
        <ele>9</ele>
        <time>2015-09-14T08:45:52.000Z</time>
      </trkpt>
      <trkpt lat="46.22813" lon="-1.16371">
        <ele>9.1999998092651</ele>
        <time>2015-09-14T08:46:02.000Z</time>
      </trkpt>
      <trkpt lat="46.22816" lon="-1.1635">
        <ele>9.3999996185303</ele>
        <time>2015-09-14T08:46:13.000Z</time>
      </trkpt>
      <trkpt lat="46.22818" lon="-1.16326">
        <ele>9.6000003814697</ele>
        <time>2015-09-14T08:46:25.000Z</time>
      </trkpt>
      <trkpt lat="46.22818" lon="-1.16301">
        <ele>9.8000001907349</ele>
        <time>2015-09-14T08:46:38.000Z</time>
      </trkpt>
      <trkpt lat="46.22817" lon="-1.16284">
        <ele>9.8000001907349</ele>
        <time>2015-09-14T08:46:47.000Z</time>
      </trkpt>
      <trkpt lat="46.22815" lon="-1.16269">
        <ele>10</ele>
        <time>2015-09-14T08:46:55.000Z</time>
      </trkpt>
      <trkpt lat="46.22814" lon="-1.16252">
        <ele>10</ele>
        <time>2015-09-14T08:47:04.000Z</time>
      </trkpt>
      <trkpt lat="46.22813" lon="-1.16235">
        <ele>10</ele>
        <time>2015-09-14T08:47:13.000Z</time>
      </trkpt>
      <trkpt lat="46.22808" lon="-1.1619">
        <ele>10</ele>
        <time>2015-09-14T08:47:35.000Z</time>
      </trkpt>
      <trkpt lat="46.22806" lon="-1.16168">
        <ele>10</ele>
        <time>2015-09-14T08:47:46.000Z</time>
      </trkpt>
      <trkpt lat="46.22803" lon="-1.16147">
        <ele>9.8000001907349</ele>
        <time>2015-09-14T08:47:57.000Z</time>
      </trkpt>
      <trkpt lat="46.22801" lon="-1.16132">
        <ele>9.8000001907349</ele>
        <time>2015-09-14T08:48:05.000Z</time>
      </trkpt>
      <trkpt lat="46.22798" lon="-1.16114">
        <ele>9.8000001907349</ele>
        <time>2015-09-14T08:48:14.000Z</time>
      </trkpt>
      <trkpt lat="46.22795" lon="-1.16091">
        <ele>9.8000001907349</ele>
        <time>2015-09-14T08:48:26.000Z</time>
      </trkpt>
      <trkpt lat="46.22792" lon="-1.16066">
        <ele>9.8000001907349</ele>
        <time>2015-09-14T08:48:39.000Z</time>
      </trkpt>
      <trkpt lat="46.2279" lon="-1.16045">
        <ele>9.8000001907349</ele>
        <time>2015-09-14T08:48:50.000Z</time>
      </trkpt>
      <trkpt lat="46.22789" lon="-1.16018">
        <ele>9.8000001907349</ele>
        <time>2015-09-14T08:49:04.000Z</time>
      </trkpt>
      <trkpt lat="46.22788" lon="-1.15992">
        <ele>9.8000001907349</ele>
        <time>2015-09-14T08:49:17.000Z</time>
      </trkpt>
      <trkpt lat="46.22788" lon="-1.15967">
        <ele>10</ele>
        <time>2015-09-14T08:49:30.000Z</time>
      </trkpt>
      <trkpt lat="46.22788" lon="-1.15944">
        <ele>10</ele>
        <time>2015-09-14T08:49:42.000Z</time>
      </trkpt>
      <trkpt lat="46.22789" lon="-1.15918">
        <ele>10</ele>
        <time>2015-09-14T08:49:55.000Z</time>
      </trkpt>
      <trkpt lat="46.22789" lon="-1.15892">
        <ele>10</ele>
        <time>2015-09-14T08:50:08.000Z</time>
      </trkpt>
      <trkpt lat="46.22789" lon="-1.15866">
        <ele>10</ele>
        <time>2015-09-14T08:50:21.000Z</time>
      </trkpt>
      <trkpt lat="46.22789" lon="-1.15842">
        <ele>10</ele>
        <time>2015-09-14T08:50:33.000Z</time>
      </trkpt>
      <trkpt lat="46.2279" lon="-1.15819">
        <ele>10</ele>
        <time>2015-09-14T08:50:44.000Z</time>
      </trkpt>
      <trkpt lat="46.22791" lon="-1.15793">
        <ele>10</ele>
        <time>2015-09-14T08:50:57.000Z</time>
      </trkpt>
      <trkpt lat="46.22792" lon="-1.15768">
        <ele>10</ele>
        <time>2015-09-14T08:51:10.000Z</time>
      </trkpt>
      <trkpt lat="46.22794" lon="-1.15749">
        <ele>10</ele>
        <time>2015-09-14T08:51:20.000Z</time>
      </trkpt>
      <trkpt lat="46.22794" lon="-1.15727">
        <ele>9.8000001907349</ele>
        <time>2015-09-14T08:51:31.000Z</time>
      </trkpt>
      <trkpt lat="46.22791" lon="-1.15702">
        <ele>10</ele>
        <time>2015-09-14T08:51:43.000Z</time>
      </trkpt>
      <trkpt lat="46.22787" lon="-1.15678">
        <ele>10.199999809265</ele>
        <time>2015-09-14T08:51:55.000Z</time>
      </trkpt>
      <trkpt lat="46.22783" lon="-1.15656">
        <ele>10.60000038147</ele>
        <time>2015-09-14T08:52:06.000Z</time>
      </trkpt>
      <trkpt lat="46.22779" lon="-1.15632">
        <ele>10.60000038147</ele>
        <time>2015-09-14T08:52:19.000Z</time>
      </trkpt>
      <trkpt lat="46.22776" lon="-1.15611">
        <ele>10.60000038147</ele>
        <time>2015-09-14T08:52:30.000Z</time>
      </trkpt>
      <trkpt lat="46.22772" lon="-1.15585">
        <ele>10.800000190735</ele>
        <time>2015-09-14T08:52:43.000Z</time>
      </trkpt>
      <trkpt lat="46.2277" lon="-1.15565">
        <ele>11</ele>
        <time>2015-09-14T08:52:53.000Z</time>
      </trkpt>
      <trkpt lat="46.22767" lon="-1.15539">
        <ele>11</ele>
        <time>2015-09-14T08:53:06.000Z</time>
      </trkpt>
      <trkpt lat="46.22765" lon="-1.15518">
        <ele>11</ele>
        <time>2015-09-14T08:53:17.000Z</time>
      </trkpt>
      <trkpt lat="46.22763" lon="-1.15503">
        <ele>11.199999809265</ele>
        <time>2015-09-14T08:53:25.000Z</time>
      </trkpt>
      <trkpt lat="46.2276" lon="-1.15478">
        <ele>11.60000038147</ele>
        <time>2015-09-14T08:53:37.000Z</time>
      </trkpt>
      <trkpt lat="46.22758" lon="-1.15454">
        <ele>12</ele>
        <time>2015-09-14T08:53:49.000Z</time>
      </trkpt>
      <trkpt lat="46.22755" lon="-1.1543">
        <ele>12</ele>
        <time>2015-09-14T08:54:01.000Z</time>
      </trkpt>
      <trkpt lat="46.22751" lon="-1.15402">
        <ele>12</ele>
        <time>2015-09-14T08:54:14.000Z</time>
      </trkpt>
      <trkpt lat="46.22749" lon="-1.15381">
        <ele>12.199999809265</ele>
        <time>2015-09-14T08:54:24.000Z</time>
      </trkpt>
      <trkpt lat="46.22745" lon="-1.15356">
        <ele>12.199999809265</ele>
        <time>2015-09-14T08:54:36.000Z</time>
      </trkpt>
      <trkpt lat="46.22742" lon="-1.15331">
        <ele>12.199999809265</ele>
        <time>2015-09-14T08:54:48.000Z</time>
      </trkpt>
      <trkpt lat="46.22741" lon="-1.15305">
        <ele>12</ele>
        <time>2015-09-14T08:55:01.000Z</time>
      </trkpt>
      <trkpt lat="46.2274" lon="-1.1528">
        <ele>11.800000190735</ele>
        <time>2015-09-14T08:55:13.000Z</time>
      </trkpt>
      <trkpt lat="46.2274" lon="-1.15255">
        <ele>11.800000190735</ele>
        <time>2015-09-14T08:55:25.000Z</time>
      </trkpt>
      <trkpt lat="46.22739" lon="-1.15226">
        <ele>11.800000190735</ele>
        <time>2015-09-14T08:55:37.000Z</time>
      </trkpt>
      <trkpt lat="46.22737" lon="-1.15199">
        <ele>11.60000038147</ele>
        <time>2015-09-14T08:55:49.000Z</time>
      </trkpt>
      <trkpt lat="46.22737" lon="-1.15176">
        <ele>11.39999961853</ele>
        <time>2015-09-14T08:55:59.000Z</time>
      </trkpt>
      <trkpt lat="46.22737" lon="-1.15152">
        <ele>11</ele>
        <time>2015-09-14T08:56:10.000Z</time>
      </trkpt>
      <trkpt lat="46.22738" lon="-1.15124">
        <ele>11.199999809265</ele>
        <time>2015-09-14T08:56:22.000Z</time>
      </trkpt>
      <trkpt lat="46.22739" lon="-1.151">
        <ele>11.39999961853</ele>
        <time>2015-09-14T08:56:33.000Z</time>
      </trkpt>
      <trkpt lat="46.22739" lon="-1.15076">
        <ele>11.60000038147</ele>
        <time>2015-09-14T08:56:43.000Z</time>
      </trkpt>
      <trkpt lat="46.22737" lon="-1.15051">
        <ele>11.800000190735</ele>
        <time>2015-09-14T08:56:54.000Z</time>
      </trkpt>
      <trkpt lat="46.22736" lon="-1.1503">
        <ele>12</ele>
        <time>2015-09-14T08:57:03.000Z</time>
      </trkpt>
      <trkpt lat="46.22734" lon="-1.1501">
        <ele>12</ele>
        <time>2015-09-14T08:57:12.000Z</time>
      </trkpt>
      <trkpt lat="46.22732" lon="-1.14982">
        <ele>12</ele>
        <time>2015-09-14T08:57:24.000Z</time>
      </trkpt>
      <trkpt lat="46.22729" lon="-1.14955">
        <ele>11.39999961853</ele>
        <time>2015-09-14T08:57:36.000Z</time>
      </trkpt>
      <trkpt lat="46.22727" lon="-1.14927">
        <ele>10.800000190735</ele>
        <time>2015-09-14T08:57:48.000Z</time>
      </trkpt>
      <trkpt lat="46.22726" lon="-1.14907">
        <ele>10.199999809265</ele>
        <time>2015-09-14T08:58:00.000Z</time>
      </trkpt>
      <trkpt lat="46.22726" lon="-1.14904">
        <ele>10.199999809265</ele>
        <time>2015-09-14T08:58:27.000Z</time>
      </trkpt>
      <trkpt lat="46.22723" lon="-1.14903">
        <ele>10</ele>
        <time>2015-09-14T09:00:48.000Z</time>
      </trkpt>
      <trkpt lat="46.22724" lon="-1.14901">
        <ele>10</ele>
        <time>2015-09-14T09:01:20.000Z</time>
      </trkpt>
      <trkpt lat="46.22723" lon="-1.14898">
        <ele>10</ele>
        <time>2015-09-14T09:01:26.000Z</time>
      </trkpt>
      <trkpt lat="46.22722" lon="-1.14898">
        <ele>10</ele>
        <time>2015-09-14T09:01:35.000Z</time>
      </trkpt>
      <trkpt lat="46.22722" lon="-1.14891">
        <ele>10</ele>
        <time>2015-09-14T09:02:10.000Z</time>
      </trkpt>
      <trkpt lat="46.22721" lon="-1.14881">
        <ele>10</ele>
        <time>2015-09-14T09:02:18.000Z</time>
      </trkpt>
      <trkpt lat="46.22721" lon="-1.14874">
        <ele>10</ele>
        <time>2015-09-14T09:02:25.000Z</time>
      </trkpt>
      <trkpt lat="46.22719" lon="-1.14843">
        <ele>9.8000001907349</ele>
        <time>2015-09-14T09:02:47.000Z</time>
      </trkpt>
      <trkpt lat="46.22715" lon="-1.1482">
        <ele>9.8000001907349</ele>
        <time>2015-09-14T09:03:00.000Z</time>
      </trkpt>
      <trkpt lat="46.2271" lon="-1.14798">
        <ele>9.6000003814697</ele>
        <time>2015-09-14T09:03:12.000Z</time>
      </trkpt>
      <trkpt lat="46.22705" lon="-1.1478">
        <ele>9.8000001907349</ele>
        <time>2015-09-14T09:03:21.000Z</time>
      </trkpt>
      <trkpt lat="46.227" lon="-1.14761">
        <ele>9.8000001907349</ele>
        <time>2015-09-14T09:03:31.000Z</time>
      </trkpt>
      <trkpt lat="46.22694" lon="-1.14743">
        <ele>10</ele>
        <time>2015-09-14T09:03:40.000Z</time>
      </trkpt>
      <trkpt lat="46.22687" lon="-1.1472">
        <ele>10</ele>
        <time>2015-09-14T09:03:52.000Z</time>
      </trkpt>
      <trkpt lat="46.22683" lon="-1.14698">
        <ele>10.199999809265</ele>
        <time>2015-09-14T09:04:02.000Z</time>
      </trkpt>
      <trkpt lat="46.22679" lon="-1.14676">
        <ele>10.39999961853</ele>
        <time>2015-09-14T09:04:12.000Z</time>
      </trkpt>
      <trkpt lat="46.22676" lon="-1.14656">
        <ele>10.60000038147</ele>
        <time>2015-09-14T09:04:22.000Z</time>
      </trkpt>
      <trkpt lat="46.22672" lon="-1.14634">
        <ele>10.60000038147</ele>
        <time>2015-09-14T09:04:33.000Z</time>
      </trkpt>
      <trkpt lat="46.22667" lon="-1.14611">
        <ele>10.199999809265</ele>
        <time>2015-09-14T09:04:45.000Z</time>
      </trkpt>
      <trkpt lat="46.22663" lon="-1.14587">
        <ele>10.199999809265</ele>
        <time>2015-09-14T09:04:57.000Z</time>
      </trkpt>
      <trkpt lat="46.22661" lon="-1.14572">
        <ele>10.199999809265</ele>
        <time>2015-09-14T09:05:05.000Z</time>
      </trkpt>
      <trkpt lat="46.2266" lon="-1.14549">
        <ele>10.199999809265</ele>
        <time>2015-09-14T09:05:17.000Z</time>
      </trkpt>
      <trkpt lat="46.22659" lon="-1.14527">
        <ele>10.199999809265</ele>
        <time>2015-09-14T09:05:28.000Z</time>
      </trkpt>
      <trkpt lat="46.22658" lon="-1.14508">
        <ele>10.199999809265</ele>
        <time>2015-09-14T09:05:38.000Z</time>
      </trkpt>
      <trkpt lat="46.22658" lon="-1.14492">
        <ele>10.199999809265</ele>
        <time>2015-09-14T09:05:46.000Z</time>
      </trkpt>
      <trkpt lat="46.22657" lon="-1.14476">
        <ele>10.199999809265</ele>
        <time>2015-09-14T09:05:54.000Z</time>
      </trkpt>
      <trkpt lat="46.2266" lon="-1.14463">
        <ele>10.39999961853</ele>
        <time>2015-09-14T09:06:02.000Z</time>
      </trkpt>
      <trkpt lat="46.22671" lon="-1.14451">
        <ele>10.60000038147</ele>
        <time>2015-09-14T09:06:11.000Z</time>
      </trkpt>
      <trkpt lat="46.22689" lon="-1.14444">
        <ele>11</ele>
        <time>2015-09-14T09:06:23.000Z</time>
      </trkpt>
      <trkpt lat="46.22705" lon="-1.14437">
        <ele>11.199999809265</ele>
        <time>2015-09-14T09:06:34.000Z</time>
      </trkpt>
      <trkpt lat="46.22724" lon="-1.1443">
        <ele>11.60000038147</ele>
        <time>2015-09-14T09:06:47.000Z</time>
      </trkpt>
      <trkpt lat="46.22741" lon="-1.14423">
        <ele>12</ele>
        <time>2015-09-14T09:06:59.000Z</time>
      </trkpt>
      <trkpt lat="46.2276" lon="-1.14416">
        <ele>12.39999961853</ele>
        <time>2015-09-14T09:07:12.000Z</time>
      </trkpt>
      <trkpt lat="46.22774" lon="-1.14411">
        <ele>12.800000190735</ele>
        <time>2015-09-14T09:07:22.000Z</time>
      </trkpt>
      <trkpt lat="46.22788" lon="-1.14405">
        <ele>13.199999809265</ele>
        <time>2015-09-14T09:07:32.000Z</time>
      </trkpt>
      <trkpt lat="46.22805" lon="-1.144">
        <ele>13.800000190735</ele>
        <time>2015-09-14T09:07:43.000Z</time>
      </trkpt>
      <trkpt lat="46.2282" lon="-1.14394">
        <ele>14.199999809265</ele>
        <time>2015-09-14T09:07:53.000Z</time>
      </trkpt>
      <trkpt lat="46.22835" lon="-1.14388">
        <ele>14.800000190735</ele>
        <time>2015-09-14T09:08:03.000Z</time>
      </trkpt>
      <trkpt lat="46.22851" lon="-1.14383">
        <ele>15.60000038147</ele>
        <time>2015-09-14T09:08:14.000Z</time>
      </trkpt>
      <trkpt lat="46.22865" lon="-1.14376">
        <ele>16.200000762939</ele>
        <time>2015-09-14T09:08:24.000Z</time>
      </trkpt>
      <trkpt lat="46.22882" lon="-1.14371">
        <ele>16.799999237061</ele>
        <time>2015-09-14T09:08:35.000Z</time>
      </trkpt>
      <trkpt lat="46.22899" lon="-1.14365">
        <ele>17.39999961853</ele>
        <time>2015-09-14T09:08:47.000Z</time>
      </trkpt>
      <trkpt lat="46.22913" lon="-1.1436">
        <ele>17.39999961853</ele>
        <time>2015-09-14T09:08:57.000Z</time>
      </trkpt>
      <trkpt lat="46.22931" lon="-1.14354">
        <ele>17.39999961853</ele>
        <time>2015-09-14T09:09:10.000Z</time>
      </trkpt>
      <trkpt lat="46.22945" lon="-1.14346">
        <ele>17.60000038147</ele>
        <time>2015-09-14T09:09:21.000Z</time>
      </trkpt>
      <trkpt lat="46.22946" lon="-1.14343">
        <ele>17.60000038147</ele>
        <time>2015-09-14T09:09:23.000Z</time>
      </trkpt>
      <trkpt lat="46.22944" lon="-1.14324">
        <ele>17.799999237061</ele>
        <time>2015-09-14T09:09:33.000Z</time>
      </trkpt>
      <trkpt lat="46.22942" lon="-1.14311">
        <ele>18</ele>
        <time>2015-09-14T09:09:40.000Z</time>
      </trkpt>
      <trkpt lat="46.22941" lon="-1.14296">
        <ele>18.39999961853</ele>
        <time>2015-09-14T09:09:48.000Z</time>
      </trkpt>
      <trkpt lat="46.22943" lon="-1.14284">
        <ele>18.60000038147</ele>
        <time>2015-09-14T09:09:54.000Z</time>
      </trkpt>
      <trkpt lat="46.22957" lon="-1.14272">
        <ele>19</ele>
        <time>2015-09-14T09:10:05.000Z</time>
      </trkpt>
      <trkpt lat="46.22967" lon="-1.14266">
        <ele>19</ele>
        <time>2015-09-14T09:10:12.000Z</time>
      </trkpt>
      <trkpt lat="46.22977" lon="-1.14258">
        <ele>19.200000762939</ele>
        <time>2015-09-14T09:10:20.000Z</time>
      </trkpt>
      <trkpt lat="46.23009" lon="-1.1424">
        <ele>19.39999961853</ele>
        <time>2015-09-14T09:10:43.000Z</time>
      </trkpt>
      <trkpt lat="46.2302" lon="-1.14235">
        <ele>19.39999961853</ele>
        <time>2015-09-14T09:10:51.000Z</time>
      </trkpt>
      <trkpt lat="46.23032" lon="-1.14231">
        <ele>19.200000762939</ele>
        <time>2015-09-14T09:10:59.000Z</time>
      </trkpt>
      <trkpt lat="46.23033" lon="-1.1423">
        <ele>19.200000762939</ele>
        <time>2015-09-14T09:11:00.000Z</time>
      </trkpt>
      <trkpt lat="46.23041" lon="-1.14225">
        <ele>19.200000762939</ele>
        <time>2015-09-14T09:11:07.000Z</time>
      </trkpt>
      <trkpt lat="46.23053" lon="-1.14221">
        <ele>19.200000762939</ele>
        <time>2015-09-14T09:11:14.000Z</time>
      </trkpt>
      <trkpt lat="46.23054" lon="-1.14221">
        <ele>19.200000762939</ele>
        <time>2015-09-14T09:11:15.000Z</time>
      </trkpt>
      <trkpt lat="46.23056" lon="-1.14209">
        <ele>19</ele>
        <time>2015-09-14T09:11:21.000Z</time>
      </trkpt>
      <trkpt lat="46.23056" lon="-1.14206">
        <ele>19</ele>
        <time>2015-09-14T09:11:22.000Z</time>
      </trkpt>
      <trkpt lat="46.23055" lon="-1.14202">
        <ele>19</ele>
        <time>2015-09-14T09:11:24.000Z</time>
      </trkpt>
      <trkpt lat="46.23054" lon="-1.14185">
        <ele>19</ele>
        <time>2015-09-14T09:11:32.000Z</time>
      </trkpt>
      <trkpt lat="46.23052" lon="-1.14162">
        <ele>19.200000762939</ele>
        <time>2015-09-14T09:11:43.000Z</time>
      </trkpt>
      <trkpt lat="46.23051" lon="-1.14147">
        <ele>19.200000762939</ele>
        <time>2015-09-14T09:11:50.000Z</time>
      </trkpt>
      <trkpt lat="46.23049" lon="-1.14124">
        <ele>19.200000762939</ele>
        <time>2015-09-14T09:12:01.000Z</time>
      </trkpt>
      <trkpt lat="46.23046" lon="-1.14106">
        <ele>19.200000762939</ele>
        <time>2015-09-14T09:12:10.000Z</time>
      </trkpt>
      <trkpt lat="46.23044" lon="-1.14089">
        <ele>19.200000762939</ele>
        <time>2015-09-14T09:12:18.000Z</time>
      </trkpt>
      <trkpt lat="46.2304" lon="-1.14069">
        <ele>19.200000762939</ele>
        <time>2015-09-14T09:12:28.000Z</time>
      </trkpt>
      <trkpt lat="46.23036" lon="-1.14044">
        <ele>19.60000038147</ele>
        <time>2015-09-14T09:12:40.000Z</time>
      </trkpt>
      <trkpt lat="46.2303" lon="-1.14021">
        <ele>19.799999237061</ele>
        <time>2015-09-14T09:12:51.000Z</time>
      </trkpt>
      <trkpt lat="46.23025" lon="-1.14004">
        <ele>20.200000762939</ele>
        <time>2015-09-14T09:13:00.000Z</time>
      </trkpt>
      <trkpt lat="46.23022" lon="-1.13991">
        <ele>20.39999961853</ele>
        <time>2015-09-14T09:13:07.000Z</time>
      </trkpt>
      <trkpt lat="46.23016" lon="-1.13972">
        <ele>20.60000038147</ele>
        <time>2015-09-14T09:13:17.000Z</time>
      </trkpt>
      <trkpt lat="46.23009" lon="-1.13953">
        <ele>20.60000038147</ele>
        <time>2015-09-14T09:13:27.000Z</time>
      </trkpt>
      <trkpt lat="46.23006" lon="-1.13928">
        <ele>20.60000038147</ele>
        <time>2015-09-14T09:13:39.000Z</time>
      </trkpt>
      <trkpt lat="46.23005" lon="-1.13908">
        <ele>20.60000038147</ele>
        <time>2015-09-14T09:13:49.000Z</time>
      </trkpt>
      <trkpt lat="46.23009" lon="-1.13896">
        <ele>20.60000038147</ele>
        <time>2015-09-14T09:13:56.000Z</time>
      </trkpt>
      <trkpt lat="46.23014" lon="-1.13883">
        <ele>20.799999237061</ele>
        <time>2015-09-14T09:14:03.000Z</time>
      </trkpt>
      <trkpt lat="46.23014" lon="-1.1387">
        <ele>20.799999237061</ele>
        <time>2015-09-14T09:14:09.000Z</time>
      </trkpt>
      <trkpt lat="46.23014" lon="-1.13854">
        <ele>21</ele>
        <time>2015-09-14T09:14:17.000Z</time>
      </trkpt>
      <trkpt lat="46.23014" lon="-1.13848">
        <ele>21</ele>
        <time>2015-09-14T09:14:20.000Z</time>
      </trkpt>
      <trkpt lat="46.23014" lon="-1.1384">
        <ele>21</ele>
        <time>2015-09-14T09:14:25.000Z</time>
      </trkpt>
      <trkpt lat="46.23014" lon="-1.13836">
        <ele>21</ele>
        <time>2015-09-14T09:14:27.000Z</time>
      </trkpt>
      <trkpt lat="46.2302" lon="-1.13818">
        <ele>21</ele>
        <time>2015-09-14T09:14:49.000Z</time>
      </trkpt>
      <trkpt lat="46.23032" lon="-1.13818">
        <ele>21</ele>
        <time>2015-09-14T09:14:57.000Z</time>
      </trkpt>
      <trkpt lat="46.23037" lon="-1.13817">
        <ele>21</ele>
        <time>2015-09-14T09:15:01.000Z</time>
      </trkpt>
      <trkpt lat="46.23039" lon="-1.13805">
        <ele>21</ele>
        <time>2015-09-14T09:15:08.000Z</time>
      </trkpt>
      <trkpt lat="46.23036" lon="-1.13793">
        <ele>21</ele>
        <time>2015-09-14T09:15:15.000Z</time>
      </trkpt>
      <trkpt lat="46.23034" lon="-1.13781">
        <ele>21</ele>
        <time>2015-09-14T09:15:21.000Z</time>
      </trkpt>
      <trkpt lat="46.23034" lon="-1.13779">
        <ele>21</ele>
        <time>2015-09-14T09:15:22.000Z</time>
      </trkpt>
      <trkpt lat="46.23031" lon="-1.13766">
        <ele>21</ele>
        <time>2015-09-14T09:15:29.000Z</time>
      </trkpt>
      <trkpt lat="46.23032" lon="-1.13765">
        <ele>21</ele>
        <time>2015-09-14T09:15:30.000Z</time>
      </trkpt>
      <trkpt lat="46.23036" lon="-1.13761">
        <ele>21</ele>
        <time>2015-09-14T09:15:34.000Z</time>
      </trkpt>
      <trkpt lat="46.2305" lon="-1.13756">
        <ele>21</ele>
        <time>2015-09-14T09:15:44.000Z</time>
      </trkpt>
      <trkpt lat="46.23053" lon="-1.13756">
        <ele>21</ele>
        <time>2015-09-14T09:15:47.000Z</time>
      </trkpt>
    </trkseg>
  </trk>
</gpx>